<?xml version="1.0" encoding="UTF-8" standalone="no" ?>
<gpx xmlns="http://www.topografix.com/GPX/1/1" xmlns:xsi="http://www.w3.org/2001/XMLSchema-instance" xsi:schemaLocation="http://www.topografix.com/GPX/1/1 http://www.topografix.com/GPX/1/1/gpx.xsd" version="1.1" creator="VisuGPX - https://www.visugpx.com">
  <metadata>
    <name>Grand Duc et descente du Capitou</name>
    <desc><![CDATA[Balade ambiance mimosa !]]></desc>
  </metadata>
  <trk>
    <name><![CDATA[Capitou - Grand Duc]]></name>
    <desc><![CDATA[Descente de Capitou et tour du VTOPO du Grand Duc]]></desc>
    <trkseg>
      <trkpt lat="43.55274" lon="6.93764">
        <ele>12.39999961853</ele>
        <time>2010-12-09T12:24:36.000Z</time>
      </trkpt>
      <trkpt lat="43.5527" lon="6.93765">
        <ele>12.60000038147</ele>
        <time>2010-12-09T12:24:42.000Z</time>
      </trkpt>
      <trkpt lat="43.55256" lon="6.93766">
        <ele>13</ele>
        <time>2010-12-09T12:24:47.000Z</time>
      </trkpt>
      <trkpt lat="43.55223" lon="6.93765">
        <ele>13</ele>
        <time>2010-12-09T12:24:56.000Z</time>
      </trkpt>
      <trkpt lat="43.5522" lon="6.93749">
        <ele>13.60000038147</ele>
        <time>2010-12-09T12:25:00.000Z</time>
      </trkpt>
      <trkpt lat="43.55223" lon="6.93712">
        <ele>16.39999961853</ele>
        <time>2010-12-09T12:25:10.000Z</time>
      </trkpt>
      <trkpt lat="43.55226" lon="6.93683">
        <ele>18.60000038147</ele>
        <time>2010-12-09T12:25:19.000Z</time>
      </trkpt>
      <trkpt lat="43.55228" lon="6.93654">
        <ele>22</ele>
        <time>2010-12-09T12:25:28.000Z</time>
      </trkpt>
      <trkpt lat="43.55235" lon="6.93637">
        <ele>25</ele>
        <time>2010-12-09T12:25:35.000Z</time>
      </trkpt>
      <trkpt lat="43.55247" lon="6.93623">
        <ele>27.39999961853</ele>
        <time>2010-12-09T12:25:42.000Z</time>
      </trkpt>
      <trkpt lat="43.55259" lon="6.93598">
        <ele>30.39999961853</ele>
        <time>2010-12-09T12:25:51.000Z</time>
      </trkpt>
      <trkpt lat="43.55273" lon="6.93573">
        <ele>33</ele>
        <time>2010-12-09T12:26:00.000Z</time>
      </trkpt>
      <trkpt lat="43.55288" lon="6.93546">
        <ele>35.599998474121</ele>
        <time>2010-12-09T12:26:10.000Z</time>
      </trkpt>
      <trkpt lat="43.553" lon="6.93543">
        <ele>34.200000762939</ele>
        <time>2010-12-09T12:26:15.000Z</time>
      </trkpt>
      <trkpt lat="43.55324" lon="6.9354">
        <ele>31.39999961853</ele>
        <time>2010-12-09T12:26:24.000Z</time>
      </trkpt>
      <trkpt lat="43.55339" lon="6.93527">
        <ele>31.200000762939</ele>
        <time>2010-12-09T12:26:31.000Z</time>
      </trkpt>
      <trkpt lat="43.55351" lon="6.93505">
        <ele>32.200000762939</ele>
        <time>2010-12-09T12:26:39.000Z</time>
      </trkpt>
      <trkpt lat="43.55353" lon="6.93488">
        <ele>34.599998474121</ele>
        <time>2010-12-09T12:26:44.000Z</time>
      </trkpt>
      <trkpt lat="43.55351" lon="6.9346">
        <ele>40.200000762939</ele>
        <time>2010-12-09T12:26:52.000Z</time>
      </trkpt>
      <trkpt lat="43.55356" lon="6.93429">
        <ele>44.400001525879</ele>
        <time>2010-12-09T12:27:01.000Z</time>
      </trkpt>
      <trkpt lat="43.55371" lon="6.93398">
        <ele>47.200000762939</ele>
        <time>2010-12-09T12:27:11.000Z</time>
      </trkpt>
      <trkpt lat="43.55376" lon="6.93368">
        <ele>52.400001525879</ele>
        <time>2010-12-09T12:27:19.000Z</time>
      </trkpt>
      <trkpt lat="43.55385" lon="6.93358">
        <ele>53</ele>
        <time>2010-12-09T12:27:23.000Z</time>
      </trkpt>
      <trkpt lat="43.55401" lon="6.93356">
        <ele>50.799999237061</ele>
        <time>2010-12-09T12:27:29.000Z</time>
      </trkpt>
      <trkpt lat="43.55421" lon="6.93341">
        <ele>51.599998474121</ele>
        <time>2010-12-09T12:27:37.000Z</time>
      </trkpt>
      <trkpt lat="43.55427" lon="6.93334">
        <ele>52.599998474121</ele>
        <time>2010-12-09T12:27:40.000Z</time>
      </trkpt>
      <trkpt lat="43.55438" lon="6.93336">
        <ele>51.200000762939</ele>
        <time>2010-12-09T12:27:44.000Z</time>
      </trkpt>
      <trkpt lat="43.55453" lon="6.93341">
        <ele>48.799999237061</ele>
        <time>2010-12-09T12:27:50.000Z</time>
      </trkpt>
      <trkpt lat="43.55466" lon="6.93339">
        <ele>48</ele>
        <time>2010-12-09T12:27:56.000Z</time>
      </trkpt>
      <trkpt lat="43.55481" lon="6.93333">
        <ele>47.799999237061</ele>
        <time>2010-12-09T12:28:02.000Z</time>
      </trkpt>
      <trkpt lat="43.55495" lon="6.93315">
        <ele>49.200000762939</ele>
        <time>2010-12-09T12:28:10.000Z</time>
      </trkpt>
      <trkpt lat="43.55504" lon="6.93306">
        <ele>50.200000762939</ele>
        <time>2010-12-09T12:28:15.000Z</time>
      </trkpt>
      <trkpt lat="43.55513" lon="6.93304">
        <ele>51.200000762939</ele>
        <time>2010-12-09T12:28:21.000Z</time>
      </trkpt>
      <trkpt lat="43.55513" lon="6.93302">
        <ele>51.400001525879</ele>
        <time>2010-12-09T12:28:22.000Z</time>
      </trkpt>
      <trkpt lat="43.55509" lon="6.93292">
        <ele>52.799999237061</ele>
        <time>2010-12-09T12:28:29.000Z</time>
      </trkpt>
      <trkpt lat="43.55507" lon="6.93289">
        <ele>52.799999237061</ele>
        <time>2010-12-09T12:28:46.000Z</time>
      </trkpt>
      <trkpt lat="43.55502" lon="6.93281">
        <ele>53.599998474121</ele>
        <time>2010-12-09T12:28:52.000Z</time>
      </trkpt>
      <trkpt lat="43.55499" lon="6.93276">
        <ele>54.200000762939</ele>
        <time>2010-12-09T12:28:55.000Z</time>
      </trkpt>
      <trkpt lat="43.55496" lon="6.93276">
        <ele>54.799999237061</ele>
        <time>2010-12-09T12:29:01.000Z</time>
      </trkpt>
      <trkpt lat="43.55491" lon="6.93278">
        <ele>55.200000762939</ele>
        <time>2010-12-09T12:29:06.000Z</time>
      </trkpt>
      <trkpt lat="43.55487" lon="6.93283">
        <ele>55</ele>
        <time>2010-12-09T12:29:12.000Z</time>
      </trkpt>
      <trkpt lat="43.55483" lon="6.93288">
        <ele>54.799999237061</ele>
        <time>2010-12-09T12:29:19.000Z</time>
      </trkpt>
      <trkpt lat="43.55478" lon="6.93294">
        <ele>54.599998474121</ele>
        <time>2010-12-09T12:29:24.000Z</time>
      </trkpt>
      <trkpt lat="43.5547" lon="6.93302">
        <ele>54.200000762939</ele>
        <time>2010-12-09T12:29:29.000Z</time>
      </trkpt>
      <trkpt lat="43.55459" lon="6.93304">
        <ele>55.400001525879</ele>
        <time>2010-12-09T12:29:36.000Z</time>
      </trkpt>
      <trkpt lat="43.5545" lon="6.93302">
        <ele>56.799999237061</ele>
        <time>2010-12-09T12:29:42.000Z</time>
      </trkpt>
      <trkpt lat="43.55442" lon="6.93295">
        <ele>59.200000762939</ele>
        <time>2010-12-09T12:29:47.000Z</time>
      </trkpt>
      <trkpt lat="43.55436" lon="6.93283">
        <ele>62.599998474121</ele>
        <time>2010-12-09T12:29:53.000Z</time>
      </trkpt>
      <trkpt lat="43.55432" lon="6.93267">
        <ele>66.400001525879</ele>
        <time>2010-12-09T12:30:00.000Z</time>
      </trkpt>
      <trkpt lat="43.55428" lon="6.93254">
        <ele>70</ele>
        <time>2010-12-09T12:30:06.000Z</time>
      </trkpt>
      <trkpt lat="43.55426" lon="6.93251">
        <ele>71.199996948242</ele>
        <time>2010-12-09T12:30:11.000Z</time>
      </trkpt>
      <trkpt lat="43.5543" lon="6.93252">
        <ele>70.199996948242</ele>
        <time>2010-12-09T12:30:16.000Z</time>
      </trkpt>
      <trkpt lat="43.5543" lon="6.93252">
        <ele>70</ele>
        <time>2010-12-09T12:30:22.000Z</time>
      </trkpt>
      <trkpt lat="43.55432" lon="6.93249">
        <ele>70.400001525879</ele>
        <time>2010-12-09T12:30:37.000Z</time>
      </trkpt>
      <trkpt lat="43.55435" lon="6.93244">
        <ele>70.599998474121</ele>
        <time>2010-12-09T12:30:47.000Z</time>
      </trkpt>
      <trkpt lat="43.5544" lon="6.93243">
        <ele>70</ele>
        <time>2010-12-09T12:30:53.000Z</time>
      </trkpt>
      <trkpt lat="43.55441" lon="6.93243">
        <ele>69.599998474121</ele>
        <time>2010-12-09T12:30:54.000Z</time>
      </trkpt>
      <trkpt lat="43.55445" lon="6.93242">
        <ele>69</ele>
        <time>2010-12-09T12:31:02.000Z</time>
      </trkpt>
      <trkpt lat="43.5545" lon="6.93236">
        <ele>68.800003051758</ele>
        <time>2010-12-09T12:31:09.000Z</time>
      </trkpt>
      <trkpt lat="43.55453" lon="6.93227">
        <ele>69.599998474121</ele>
        <time>2010-12-09T12:31:16.000Z</time>
      </trkpt>
      <trkpt lat="43.55454" lon="6.93224">
        <ele>69.800003051758</ele>
        <time>2010-12-09T12:31:23.000Z</time>
      </trkpt>
      <trkpt lat="43.55451" lon="6.93221">
        <ele>70.800003051758</ele>
        <time>2010-12-09T12:31:28.000Z</time>
      </trkpt>
      <trkpt lat="43.55448" lon="6.93219">
        <ele>71.800003051758</ele>
        <time>2010-12-09T12:31:33.000Z</time>
      </trkpt>
      <trkpt lat="43.55447" lon="6.93211">
        <ele>73.199996948242</ele>
        <time>2010-12-09T12:31:39.000Z</time>
      </trkpt>
      <trkpt lat="43.55444" lon="6.93206">
        <ele>74.599998474121</ele>
        <time>2010-12-09T12:31:44.000Z</time>
      </trkpt>
      <trkpt lat="43.55436" lon="6.93203">
        <ele>77.199996948242</ele>
        <time>2010-12-09T12:31:51.000Z</time>
      </trkpt>
      <trkpt lat="43.55432" lon="6.93202">
        <ele>78.199996948242</ele>
        <time>2010-12-09T12:31:55.000Z</time>
      </trkpt>
      <trkpt lat="43.5543" lon="6.93201">
        <ele>78.800003051758</ele>
        <time>2010-12-09T12:31:59.000Z</time>
      </trkpt>
      <trkpt lat="43.55424" lon="6.93192">
        <ele>82.199996948242</ele>
        <time>2010-12-09T12:32:08.000Z</time>
      </trkpt>
      <trkpt lat="43.55426" lon="6.93187">
        <ele>82.400001525879</ele>
        <time>2010-12-09T12:32:14.000Z</time>
      </trkpt>
      <trkpt lat="43.55431" lon="6.93181">
        <ele>82.199996948242</ele>
        <time>2010-12-09T12:32:21.000Z</time>
      </trkpt>
      <trkpt lat="43.55432" lon="6.93176">
        <ele>82.800003051758</ele>
        <time>2010-12-09T12:32:27.000Z</time>
      </trkpt>
      <trkpt lat="43.55432" lon="6.9317">
        <ele>83.800003051758</ele>
        <time>2010-12-09T12:32:30.000Z</time>
      </trkpt>
      <trkpt lat="43.55424" lon="6.93164">
        <ele>87</ele>
        <time>2010-12-09T12:32:36.000Z</time>
      </trkpt>
      <trkpt lat="43.55417" lon="6.93158">
        <ele>89.400001525879</ele>
        <time>2010-12-09T12:32:41.000Z</time>
      </trkpt>
      <trkpt lat="43.55416" lon="6.9315">
        <ele>90.400001525879</ele>
        <time>2010-12-09T12:32:46.000Z</time>
      </trkpt>
      <trkpt lat="43.55416" lon="6.93146">
        <ele>90.599998474121</ele>
        <time>2010-12-09T12:32:48.000Z</time>
      </trkpt>
      <trkpt lat="43.55415" lon="6.93129">
        <ele>92.199996948242</ele>
        <time>2010-12-09T12:32:55.000Z</time>
      </trkpt>
      <trkpt lat="43.55411" lon="6.93114">
        <ele>93.800003051758</ele>
        <time>2010-12-09T12:33:01.000Z</time>
      </trkpt>
      <trkpt lat="43.55405" lon="6.93096">
        <ele>95.800003051758</ele>
        <time>2010-12-09T12:33:08.000Z</time>
      </trkpt>
      <trkpt lat="43.55403" lon="6.93088">
        <ele>96.599998474121</ele>
        <time>2010-12-09T12:33:11.000Z</time>
      </trkpt>
      <trkpt lat="43.55401" lon="6.93077">
        <ele>97.400001525879</ele>
        <time>2010-12-09T12:33:15.000Z</time>
      </trkpt>
      <trkpt lat="43.55402" lon="6.93055">
        <ele>98.599998474121</ele>
        <time>2010-12-09T12:33:24.000Z</time>
      </trkpt>
      <trkpt lat="43.55404" lon="6.93036">
        <ele>99.599998474121</ele>
        <time>2010-12-09T12:33:32.000Z</time>
      </trkpt>
      <trkpt lat="43.55404" lon="6.93015">
        <ele>100.80000305176</ele>
        <time>2010-12-09T12:33:40.000Z</time>
      </trkpt>
      <trkpt lat="43.55404" lon="6.92988">
        <ele>101.40000152588</ele>
        <time>2010-12-09T12:33:51.000Z</time>
      </trkpt>
      <trkpt lat="43.55401" lon="6.92968">
        <ele>101</ele>
        <time>2010-12-09T12:33:59.000Z</time>
      </trkpt>
      <trkpt lat="43.55402" lon="6.92945">
        <ele>100.59999847412</ele>
        <time>2010-12-09T12:34:08.000Z</time>
      </trkpt>
      <trkpt lat="43.55399" lon="6.92928">
        <ele>100.40000152588</ele>
        <time>2010-12-09T12:34:15.000Z</time>
      </trkpt>
      <trkpt lat="43.55399" lon="6.92926">
        <ele>100.19999694824</ele>
        <time>2010-12-09T12:34:16.000Z</time>
      </trkpt>
      <trkpt lat="43.55394" lon="6.92909">
        <ele>100.59999847412</ele>
        <time>2010-12-09T12:34:23.000Z</time>
      </trkpt>
      <trkpt lat="43.55391" lon="6.92893">
        <ele>101.80000305176</ele>
        <time>2010-12-09T12:34:29.000Z</time>
      </trkpt>
      <trkpt lat="43.5539" lon="6.92883">
        <ele>102.59999847412</ele>
        <time>2010-12-09T12:34:33.000Z</time>
      </trkpt>
      <trkpt lat="43.55391" lon="6.92862">
        <ele>104</ele>
        <time>2010-12-09T12:34:41.000Z</time>
      </trkpt>
      <trkpt lat="43.55393" lon="6.92843">
        <ele>105.19999694824</ele>
        <time>2010-12-09T12:34:48.000Z</time>
      </trkpt>
      <trkpt lat="43.55393" lon="6.92823">
        <ele>107</ele>
        <time>2010-12-09T12:34:55.000Z</time>
      </trkpt>
      <trkpt lat="43.55388" lon="6.928">
        <ele>110.19999694824</ele>
        <time>2010-12-09T12:35:04.000Z</time>
      </trkpt>
      <trkpt lat="43.5538" lon="6.92783">
        <ele>113.59999847412</ele>
        <time>2010-12-09T12:35:12.000Z</time>
      </trkpt>
      <trkpt lat="43.55369" lon="6.9277">
        <ele>117.40000152588</ele>
        <time>2010-12-09T12:35:20.000Z</time>
      </trkpt>
      <trkpt lat="43.55365" lon="6.92765">
        <ele>118.80000305176</ele>
        <time>2010-12-09T12:35:23.000Z</time>
      </trkpt>
      <trkpt lat="43.55359" lon="6.92762">
        <ele>120.59999847412</ele>
        <time>2010-12-09T12:35:27.000Z</time>
      </trkpt>
      <trkpt lat="43.55347" lon="6.92751">
        <ele>124.80000305176</ele>
        <time>2010-12-09T12:35:36.000Z</time>
      </trkpt>
      <trkpt lat="43.55335" lon="6.92745">
        <ele>128.60000610352</ele>
        <time>2010-12-09T12:35:44.000Z</time>
      </trkpt>
      <trkpt lat="43.55325" lon="6.92736">
        <ele>131.39999389648</ele>
        <time>2010-12-09T12:35:51.000Z</time>
      </trkpt>
      <trkpt lat="43.55321" lon="6.92726">
        <ele>133.60000610352</ele>
        <time>2010-12-09T12:35:56.000Z</time>
      </trkpt>
      <trkpt lat="43.55317" lon="6.92707">
        <ele>137.39999389648</ele>
        <time>2010-12-09T12:36:05.000Z</time>
      </trkpt>
      <trkpt lat="43.55308" lon="6.92691">
        <ele>141</ele>
        <time>2010-12-09T12:36:14.000Z</time>
      </trkpt>
      <trkpt lat="43.55301" lon="6.92676">
        <ele>144</ele>
        <time>2010-12-09T12:36:22.000Z</time>
      </trkpt>
      <trkpt lat="43.55296" lon="6.92658">
        <ele>147.60000610352</ele>
        <time>2010-12-09T12:36:31.000Z</time>
      </trkpt>
      <trkpt lat="43.55289" lon="6.92644">
        <ele>150.60000610352</ele>
        <time>2010-12-09T12:36:40.000Z</time>
      </trkpt>
      <trkpt lat="43.55282" lon="6.92629">
        <ele>153.39999389648</ele>
        <time>2010-12-09T12:36:49.000Z</time>
      </trkpt>
      <trkpt lat="43.55273" lon="6.92615">
        <ele>156</ele>
        <time>2010-12-09T12:36:57.000Z</time>
      </trkpt>
      <trkpt lat="43.55266" lon="6.92605">
        <ele>157.80000305176</ele>
        <time>2010-12-09T12:37:04.000Z</time>
      </trkpt>
      <trkpt lat="43.55256" lon="6.92596">
        <ele>159</ele>
        <time>2010-12-09T12:37:12.000Z</time>
      </trkpt>
      <trkpt lat="43.55246" lon="6.92588">
        <ele>160.39999389648</ele>
        <time>2010-12-09T12:37:19.000Z</time>
      </trkpt>
      <trkpt lat="43.55241" lon="6.92586">
        <ele>161.19999694824</ele>
        <time>2010-12-09T12:37:23.000Z</time>
      </trkpt>
      <trkpt lat="43.55238" lon="6.92583">
        <ele>162</ele>
        <time>2010-12-09T12:37:28.000Z</time>
      </trkpt>
      <trkpt lat="43.55237" lon="6.92585">
        <ele>161.80000305176</ele>
        <time>2010-12-09T12:37:33.000Z</time>
      </trkpt>
      <trkpt lat="43.55235" lon="6.92585">
        <ele>161.80000305176</ele>
        <time>2010-12-09T12:37:58.000Z</time>
      </trkpt>
      <trkpt lat="43.55238" lon="6.92584">
        <ele>161.80000305176</ele>
        <time>2010-12-09T12:38:07.000Z</time>
      </trkpt>
      <trkpt lat="43.55239" lon="6.92582">
        <ele>162</ele>
        <time>2010-12-09T12:38:22.000Z</time>
      </trkpt>
      <trkpt lat="43.55239" lon="6.92581">
        <ele>162.39999389648</ele>
        <time>2010-12-09T12:38:52.000Z</time>
      </trkpt>
      <trkpt lat="43.5524" lon="6.92581">
        <ele>162.19999694824</ele>
        <time>2010-12-09T12:39:04.000Z</time>
      </trkpt>
      <trkpt lat="43.55239" lon="6.92579">
        <ele>162.80000305176</ele>
        <time>2010-12-09T12:39:11.000Z</time>
      </trkpt>
      <trkpt lat="43.55241" lon="6.92579">
        <ele>162.80000305176</ele>
        <time>2010-12-09T12:39:15.000Z</time>
      </trkpt>
      <trkpt lat="43.55242" lon="6.92577">
        <ele>163</ele>
        <time>2010-12-09T12:39:17.000Z</time>
      </trkpt>
      <trkpt lat="43.55246" lon="6.92572">
        <ele>163.80000305176</ele>
        <time>2010-12-09T12:39:20.000Z</time>
      </trkpt>
      <trkpt lat="43.55256" lon="6.92575">
        <ele>163</ele>
        <time>2010-12-09T12:39:25.000Z</time>
      </trkpt>
      <trkpt lat="43.55257" lon="6.92577">
        <ele>162.60000610352</ele>
        <time>2010-12-09T12:39:26.000Z</time>
      </trkpt>
      <trkpt lat="43.55266" lon="6.92588">
        <ele>160.80000305176</ele>
        <time>2010-12-09T12:39:33.000Z</time>
      </trkpt>
      <trkpt lat="43.55267" lon="6.92589">
        <ele>160.60000610352</ele>
        <time>2010-12-09T12:39:35.000Z</time>
      </trkpt>
      <trkpt lat="43.55269" lon="6.92592">
        <ele>160.19999694824</ele>
        <time>2010-12-09T12:39:41.000Z</time>
      </trkpt>
      <trkpt lat="43.55279" lon="6.92594">
        <ele>160.19999694824</ele>
        <time>2010-12-09T12:39:47.000Z</time>
      </trkpt>
      <trkpt lat="43.55294" lon="6.92598">
        <ele>160</ele>
        <time>2010-12-09T12:39:56.000Z</time>
      </trkpt>
      <trkpt lat="43.55303" lon="6.92606">
        <ele>158.60000610352</ele>
        <time>2010-12-09T12:40:02.000Z</time>
      </trkpt>
      <trkpt lat="43.55316" lon="6.92613">
        <ele>157.39999389648</ele>
        <time>2010-12-09T12:40:10.000Z</time>
      </trkpt>
      <trkpt lat="43.55328" lon="6.9261">
        <ele>158.19999694824</ele>
        <time>2010-12-09T12:40:17.000Z</time>
      </trkpt>
      <trkpt lat="43.55336" lon="6.92603">
        <ele>159.39999389648</ele>
        <time>2010-12-09T12:40:23.000Z</time>
      </trkpt>
      <trkpt lat="43.55345" lon="6.92589">
        <ele>160</ele>
        <time>2010-12-09T12:40:31.000Z</time>
      </trkpt>
      <trkpt lat="43.55353" lon="6.92578">
        <ele>160.60000610352</ele>
        <time>2010-12-09T12:40:38.000Z</time>
      </trkpt>
      <trkpt lat="43.55358" lon="6.92566">
        <ele>162.39999389648</ele>
        <time>2010-12-09T12:40:44.000Z</time>
      </trkpt>
      <trkpt lat="43.55366" lon="6.92554">
        <ele>163.39999389648</ele>
        <time>2010-12-09T12:40:51.000Z</time>
      </trkpt>
      <trkpt lat="43.55374" lon="6.92539">
        <ele>165.39999389648</ele>
        <time>2010-12-09T12:40:59.000Z</time>
      </trkpt>
      <trkpt lat="43.55379" lon="6.92521">
        <ele>169.19999694824</ele>
        <time>2010-12-09T12:41:08.000Z</time>
      </trkpt>
      <trkpt lat="43.5538" lon="6.92507">
        <ele>172.80000305176</ele>
        <time>2010-12-09T12:41:15.000Z</time>
      </trkpt>
      <trkpt lat="43.55386" lon="6.92489">
        <ele>176</ele>
        <time>2010-12-09T12:41:24.000Z</time>
      </trkpt>
      <trkpt lat="43.55394" lon="6.92472">
        <ele>179</ele>
        <time>2010-12-09T12:41:33.000Z</time>
      </trkpt>
      <trkpt lat="43.55399" lon="6.92461">
        <ele>181</ele>
        <time>2010-12-09T12:41:39.000Z</time>
      </trkpt>
      <trkpt lat="43.55403" lon="6.92451">
        <ele>183</ele>
        <time>2010-12-09T12:41:44.000Z</time>
      </trkpt>
      <trkpt lat="43.55405" lon="6.92448">
        <ele>183.60000610352</ele>
        <time>2010-12-09T12:41:46.000Z</time>
      </trkpt>
      <trkpt lat="43.55414" lon="6.92435">
        <ele>185.80000305176</ele>
        <time>2010-12-09T12:41:54.000Z</time>
      </trkpt>
      <trkpt lat="43.55423" lon="6.92419">
        <ele>189.39999389648</ele>
        <time>2010-12-09T12:42:03.000Z</time>
      </trkpt>
      <trkpt lat="43.55431" lon="6.92407">
        <ele>191.80000305176</ele>
        <time>2010-12-09T12:42:10.000Z</time>
      </trkpt>
      <trkpt lat="43.55438" lon="6.92395">
        <ele>194.80000305176</ele>
        <time>2010-12-09T12:42:17.000Z</time>
      </trkpt>
      <trkpt lat="43.55445" lon="6.92382">
        <ele>198.39999389648</ele>
        <time>2010-12-09T12:42:24.000Z</time>
      </trkpt>
      <trkpt lat="43.55453" lon="6.9237">
        <ele>201.19999694824</ele>
        <time>2010-12-09T12:42:31.000Z</time>
      </trkpt>
      <trkpt lat="43.55463" lon="6.9236">
        <ele>203.39999389648</ele>
        <time>2010-12-09T12:42:38.000Z</time>
      </trkpt>
      <trkpt lat="43.55478" lon="6.9236">
        <ele>201.60000610352</ele>
        <time>2010-12-09T12:42:46.000Z</time>
      </trkpt>
      <trkpt lat="43.55493" lon="6.92363">
        <ele>198.80000305176</ele>
        <time>2010-12-09T12:42:54.000Z</time>
      </trkpt>
      <trkpt lat="43.55509" lon="6.92358">
        <ele>199.80000305176</ele>
        <time>2010-12-09T12:43:03.000Z</time>
      </trkpt>
      <trkpt lat="43.55521" lon="6.92358">
        <ele>199.80000305176</ele>
        <time>2010-12-09T12:43:10.000Z</time>
      </trkpt>
      <trkpt lat="43.55531" lon="6.9236">
        <ele>199.19999694824</ele>
        <time>2010-12-09T12:43:17.000Z</time>
      </trkpt>
      <trkpt lat="43.5554" lon="6.92363">
        <ele>198</ele>
        <time>2010-12-09T12:43:23.000Z</time>
      </trkpt>
      <trkpt lat="43.5555" lon="6.92358">
        <ele>199.60000610352</ele>
        <time>2010-12-09T12:43:30.000Z</time>
      </trkpt>
      <trkpt lat="43.55556" lon="6.92345">
        <ele>204</ele>
        <time>2010-12-09T12:43:37.000Z</time>
      </trkpt>
      <trkpt lat="43.55562" lon="6.92335">
        <ele>207.39999389648</ele>
        <time>2010-12-09T12:43:43.000Z</time>
      </trkpt>
      <trkpt lat="43.55565" lon="6.92324">
        <ele>210.19999694824</ele>
        <time>2010-12-09T12:43:50.000Z</time>
      </trkpt>
      <trkpt lat="43.55571" lon="6.92315">
        <ele>211.60000610352</ele>
        <time>2010-12-09T12:43:56.000Z</time>
      </trkpt>
      <trkpt lat="43.55577" lon="6.92304">
        <ele>213.39999389648</ele>
        <time>2010-12-09T12:44:03.000Z</time>
      </trkpt>
      <trkpt lat="43.55585" lon="6.92295">
        <ele>214.80000305176</ele>
        <time>2010-12-09T12:44:10.000Z</time>
      </trkpt>
      <trkpt lat="43.55592" lon="6.92285">
        <ele>217</ele>
        <time>2010-12-09T12:44:17.000Z</time>
      </trkpt>
      <trkpt lat="43.55599" lon="6.92276">
        <ele>219.19999694824</ele>
        <time>2010-12-09T12:44:24.000Z</time>
      </trkpt>
      <trkpt lat="43.55606" lon="6.92263">
        <ele>222</ele>
        <time>2010-12-09T12:44:31.000Z</time>
      </trkpt>
      <trkpt lat="43.55617" lon="6.92259">
        <ele>223.39999389648</ele>
        <time>2010-12-09T12:44:37.000Z</time>
      </trkpt>
      <trkpt lat="43.55626" lon="6.92264">
        <ele>223</ele>
        <time>2010-12-09T12:44:43.000Z</time>
      </trkpt>
      <trkpt lat="43.55632" lon="6.92279">
        <ele>220.19999694824</ele>
        <time>2010-12-09T12:44:50.000Z</time>
      </trkpt>
      <trkpt lat="43.5563" lon="6.92301">
        <ele>215.39999389648</ele>
        <time>2010-12-09T12:44:58.000Z</time>
      </trkpt>
      <trkpt lat="43.55627" lon="6.92325">
        <ele>210</ele>
        <time>2010-12-09T12:45:06.000Z</time>
      </trkpt>
      <trkpt lat="43.55635" lon="6.92331">
        <ele>209</ele>
        <time>2010-12-09T12:45:11.000Z</time>
      </trkpt>
      <trkpt lat="43.55646" lon="6.92322">
        <ele>211.19999694824</ele>
        <time>2010-12-09T12:45:17.000Z</time>
      </trkpt>
      <trkpt lat="43.55654" lon="6.92305">
        <ele>215.19999694824</ele>
        <time>2010-12-09T12:45:25.000Z</time>
      </trkpt>
      <trkpt lat="43.55657" lon="6.92303">
        <ele>216</ele>
        <time>2010-12-09T12:45:27.000Z</time>
      </trkpt>
      <trkpt lat="43.55661" lon="6.92297">
        <ele>217.39999389648</ele>
        <time>2010-12-09T12:45:33.000Z</time>
      </trkpt>
      <trkpt lat="43.55657" lon="6.92294">
        <ele>218</ele>
        <time>2010-12-09T12:45:37.000Z</time>
      </trkpt>
      <trkpt lat="43.55657" lon="6.92294">
        <ele>217.80000305176</ele>
        <time>2010-12-09T12:45:44.000Z</time>
      </trkpt>
      <trkpt lat="43.55658" lon="6.92295">
        <ele>217.80000305176</ele>
        <time>2010-12-09T12:46:12.000Z</time>
      </trkpt>
      <trkpt lat="43.55657" lon="6.92296">
        <ele>217.39999389648</ele>
        <time>2010-12-09T12:46:28.000Z</time>
      </trkpt>
      <trkpt lat="43.55656" lon="6.92296">
        <ele>217.39999389648</ele>
        <time>2010-12-09T12:46:50.000Z</time>
      </trkpt>
      <trkpt lat="43.55653" lon="6.92293">
        <ele>218.19999694824</ele>
        <time>2010-12-09T12:46:56.000Z</time>
      </trkpt>
      <trkpt lat="43.5565" lon="6.92277">
        <ele>221.39999389648</ele>
        <time>2010-12-09T12:47:01.000Z</time>
      </trkpt>
      <trkpt lat="43.55646" lon="6.92251">
        <ele>227.19999694824</ele>
        <time>2010-12-09T12:47:09.000Z</time>
      </trkpt>
      <trkpt lat="43.55642" lon="6.92225">
        <ele>230</ele>
        <time>2010-12-09T12:47:17.000Z</time>
      </trkpt>
      <trkpt lat="43.55636" lon="6.922">
        <ele>232.39999389648</ele>
        <time>2010-12-09T12:47:25.000Z</time>
      </trkpt>
      <trkpt lat="43.55629" lon="6.92186">
        <ele>233.19999694824</ele>
        <time>2010-12-09T12:47:30.000Z</time>
      </trkpt>
      <trkpt lat="43.55624" lon="6.92169">
        <ele>234.39999389648</ele>
        <time>2010-12-09T12:47:36.000Z</time>
      </trkpt>
      <trkpt lat="43.55616" lon="6.92149">
        <ele>235.19999694824</ele>
        <time>2010-12-09T12:47:43.000Z</time>
      </trkpt>
      <trkpt lat="43.55611" lon="6.92115">
        <ele>237.60000610352</ele>
        <time>2010-12-09T12:47:53.000Z</time>
      </trkpt>
      <trkpt lat="43.55619" lon="6.92094">
        <ele>239.80000305176</ele>
        <time>2010-12-09T12:48:00.000Z</time>
      </trkpt>
      <trkpt lat="43.55636" lon="6.92083">
        <ele>241.39999389648</ele>
        <time>2010-12-09T12:48:07.000Z</time>
      </trkpt>
      <trkpt lat="43.55641" lon="6.92079">
        <ele>242.60000610352</ele>
        <time>2010-12-09T12:48:09.000Z</time>
      </trkpt>
      <trkpt lat="43.55642" lon="6.92062">
        <ele>245.80000305176</ele>
        <time>2010-12-09T12:48:13.000Z</time>
      </trkpt>
      <trkpt lat="43.55633" lon="6.92057">
        <ele>246.39999389648</ele>
        <time>2010-12-09T12:48:17.000Z</time>
      </trkpt>
      <trkpt lat="43.5561" lon="6.92053">
        <ele>246.60000610352</ele>
        <time>2010-12-09T12:48:27.000Z</time>
      </trkpt>
      <trkpt lat="43.55596" lon="6.92051">
        <ele>246.80000305176</ele>
        <time>2010-12-09T12:48:34.000Z</time>
      </trkpt>
      <trkpt lat="43.55586" lon="6.92051">
        <ele>246.60000610352</ele>
        <time>2010-12-09T12:48:40.000Z</time>
      </trkpt>
      <trkpt lat="43.55574" lon="6.92048">
        <ele>249.60000610352</ele>
        <time>2010-12-09T12:48:47.000Z</time>
      </trkpt>
      <trkpt lat="43.55563" lon="6.92045">
        <ele>252.80000305176</ele>
        <time>2010-12-09T12:48:54.000Z</time>
      </trkpt>
      <trkpt lat="43.55556" lon="6.92044">
        <ele>254.60000610352</ele>
        <time>2010-12-09T12:48:58.000Z</time>
      </trkpt>
      <trkpt lat="43.55545" lon="6.92056">
        <ele>254.60000610352</ele>
        <time>2010-12-09T12:49:05.000Z</time>
      </trkpt>
      <trkpt lat="43.55536" lon="6.9208">
        <ele>252.19999694824</ele>
        <time>2010-12-09T12:49:13.000Z</time>
      </trkpt>
      <trkpt lat="43.55528" lon="6.92098">
        <ele>251.19999694824</ele>
        <time>2010-12-09T12:49:20.000Z</time>
      </trkpt>
      <trkpt lat="43.55519" lon="6.92123">
        <ele>250.39999389648</ele>
        <time>2010-12-09T12:49:29.000Z</time>
      </trkpt>
      <trkpt lat="43.55512" lon="6.9214">
        <ele>249.19999694824</ele>
        <time>2010-12-09T12:49:36.000Z</time>
      </trkpt>
      <trkpt lat="43.55503" lon="6.92157">
        <ele>248.80000305176</ele>
        <time>2010-12-09T12:49:43.000Z</time>
      </trkpt>
      <trkpt lat="43.5549" lon="6.92172">
        <ele>249.19999694824</ele>
        <time>2010-12-09T12:49:51.000Z</time>
      </trkpt>
      <trkpt lat="43.55477" lon="6.9218">
        <ele>250.39999389648</ele>
        <time>2010-12-09T12:49:58.000Z</time>
      </trkpt>
      <trkpt lat="43.55462" lon="6.92186">
        <ele>252.39999389648</ele>
        <time>2010-12-09T12:50:06.000Z</time>
      </trkpt>
      <trkpt lat="43.55448" lon="6.92185">
        <ele>255.60000610352</ele>
        <time>2010-12-09T12:50:13.000Z</time>
      </trkpt>
      <trkpt lat="43.55432" lon="6.92182">
        <ele>259.39999389648</ele>
        <time>2010-12-09T12:50:20.000Z</time>
      </trkpt>
      <trkpt lat="43.55419" lon="6.92193">
        <ele>259.39999389648</ele>
        <time>2010-12-09T12:50:27.000Z</time>
      </trkpt>
      <trkpt lat="43.55401" lon="6.92211">
        <ele>255.60000610352</ele>
        <time>2010-12-09T12:50:35.000Z</time>
      </trkpt>
      <trkpt lat="43.55383" lon="6.92225">
        <ele>252.60000610352</ele>
        <time>2010-12-09T12:50:42.000Z</time>
      </trkpt>
      <trkpt lat="43.55375" lon="6.92228">
        <ele>252.19999694824</ele>
        <time>2010-12-09T12:50:45.000Z</time>
      </trkpt>
      <trkpt lat="43.5537" lon="6.92219">
        <ele>255</ele>
        <time>2010-12-09T12:50:49.000Z</time>
      </trkpt>
      <trkpt lat="43.55372" lon="6.92218">
        <ele>255.19999694824</ele>
        <time>2010-12-09T12:50:50.000Z</time>
      </trkpt>
      <trkpt lat="43.5539" lon="6.92206">
        <ele>257.39999389648</ele>
        <time>2010-12-09T12:50:59.000Z</time>
      </trkpt>
      <trkpt lat="43.55405" lon="6.92189">
        <ele>261.20001220703</ele>
        <time>2010-12-09T12:51:07.000Z</time>
      </trkpt>
      <trkpt lat="43.55426" lon="6.92162">
        <ele>265.79998779297</ele>
        <time>2010-12-09T12:51:20.000Z</time>
      </trkpt>
      <trkpt lat="43.55438" lon="6.92147">
        <ele>266.20001220703</ele>
        <time>2010-12-09T12:51:27.000Z</time>
      </trkpt>
      <trkpt lat="43.55455" lon="6.92121">
        <ele>267.20001220703</ele>
        <time>2010-12-09T12:51:39.000Z</time>
      </trkpt>
      <trkpt lat="43.55462" lon="6.92102">
        <ele>268.60000610352</ele>
        <time>2010-12-09T12:51:46.000Z</time>
      </trkpt>
      <trkpt lat="43.55469" lon="6.92073">
        <ele>272</ele>
        <time>2010-12-09T12:51:56.000Z</time>
      </trkpt>
      <trkpt lat="43.55471" lon="6.92045">
        <ele>276</ele>
        <time>2010-12-09T12:52:05.000Z</time>
      </trkpt>
      <trkpt lat="43.55474" lon="6.92019">
        <ele>279.79998779297</ele>
        <time>2010-12-09T12:52:14.000Z</time>
      </trkpt>
      <trkpt lat="43.55475" lon="6.91989">
        <ele>283.60000610352</ele>
        <time>2010-12-09T12:52:24.000Z</time>
      </trkpt>
      <trkpt lat="43.55478" lon="6.91958">
        <ele>285.60000610352</ele>
        <time>2010-12-09T12:52:34.000Z</time>
      </trkpt>
      <trkpt lat="43.55479" lon="6.91931">
        <ele>287.60000610352</ele>
        <time>2010-12-09T12:52:43.000Z</time>
      </trkpt>
      <trkpt lat="43.55481" lon="6.91908">
        <ele>288.60000610352</ele>
        <time>2010-12-09T12:52:51.000Z</time>
      </trkpt>
      <trkpt lat="43.55484" lon="6.91883">
        <ele>288.20001220703</ele>
        <time>2010-12-09T12:52:59.000Z</time>
      </trkpt>
      <trkpt lat="43.55486" lon="6.91869">
        <ele>288.20001220703</ele>
        <time>2010-12-09T12:53:04.000Z</time>
      </trkpt>
      <trkpt lat="43.55498" lon="6.9186">
        <ele>287.79998779297</ele>
        <time>2010-12-09T12:53:10.000Z</time>
      </trkpt>
      <trkpt lat="43.55506" lon="6.91856">
        <ele>288.60000610352</ele>
        <time>2010-12-09T12:53:14.000Z</time>
      </trkpt>
      <trkpt lat="43.55505" lon="6.91843">
        <ele>289.20001220703</ele>
        <time>2010-12-09T12:53:19.000Z</time>
      </trkpt>
      <trkpt lat="43.55506" lon="6.91836">
        <ele>289.79998779297</ele>
        <time>2010-12-09T12:53:21.000Z</time>
      </trkpt>
      <trkpt lat="43.55511" lon="6.91808">
        <ele>289.60000610352</ele>
        <time>2010-12-09T12:53:30.000Z</time>
      </trkpt>
      <trkpt lat="43.55517" lon="6.91781">
        <ele>289.39999389648</ele>
        <time>2010-12-09T12:53:39.000Z</time>
      </trkpt>
      <trkpt lat="43.55521" lon="6.91756">
        <ele>289.39999389648</ele>
        <time>2010-12-09T12:53:47.000Z</time>
      </trkpt>
      <trkpt lat="43.55521" lon="6.91736">
        <ele>287.60000610352</ele>
        <time>2010-12-09T12:53:54.000Z</time>
      </trkpt>
      <trkpt lat="43.55521" lon="6.9173">
        <ele>287</ele>
        <time>2010-12-09T12:53:56.000Z</time>
      </trkpt>
      <trkpt lat="43.5553" lon="6.91719">
        <ele>287.79998779297</ele>
        <time>2010-12-09T12:54:03.000Z</time>
      </trkpt>
      <trkpt lat="43.5554" lon="6.91709">
        <ele>288.60000610352</ele>
        <time>2010-12-09T12:54:09.000Z</time>
      </trkpt>
      <trkpt lat="43.55555" lon="6.91697">
        <ele>290.20001220703</ele>
        <time>2010-12-09T12:54:17.000Z</time>
      </trkpt>
      <trkpt lat="43.55567" lon="6.91683">
        <ele>290.39999389648</ele>
        <time>2010-12-09T12:54:24.000Z</time>
      </trkpt>
      <trkpt lat="43.55584" lon="6.91668">
        <ele>291.20001220703</ele>
        <time>2010-12-09T12:54:32.000Z</time>
      </trkpt>
      <trkpt lat="43.55601" lon="6.91663">
        <ele>293.60000610352</ele>
        <time>2010-12-09T12:54:39.000Z</time>
      </trkpt>
      <trkpt lat="43.55624" lon="6.91668">
        <ele>298.39999389648</ele>
        <time>2010-12-09T12:54:47.000Z</time>
      </trkpt>
      <trkpt lat="43.55643" lon="6.91669">
        <ele>302</ele>
        <time>2010-12-09T12:54:53.000Z</time>
      </trkpt>
      <trkpt lat="43.55663" lon="6.91667">
        <ele>305.20001220703</ele>
        <time>2010-12-09T12:54:59.000Z</time>
      </trkpt>
      <trkpt lat="43.55674" lon="6.91653">
        <ele>307.39999389648</ele>
        <time>2010-12-09T12:55:04.000Z</time>
      </trkpt>
      <trkpt lat="43.55676" lon="6.91632">
        <ele>307.60000610352</ele>
        <time>2010-12-09T12:55:10.000Z</time>
      </trkpt>
      <trkpt lat="43.5567" lon="6.91612">
        <ele>305.20001220703</ele>
        <time>2010-12-09T12:55:16.000Z</time>
      </trkpt>
      <trkpt lat="43.55664" lon="6.91584">
        <ele>302.20001220703</ele>
        <time>2010-12-09T12:55:24.000Z</time>
      </trkpt>
      <trkpt lat="43.55659" lon="6.91564">
        <ele>299</ele>
        <time>2010-12-09T12:55:30.000Z</time>
      </trkpt>
      <trkpt lat="43.55659" lon="6.91547">
        <ele>297.79998779297</ele>
        <time>2010-12-09T12:55:35.000Z</time>
      </trkpt>
      <trkpt lat="43.55661" lon="6.91541">
        <ele>298.20001220703</ele>
        <time>2010-12-09T12:55:37.000Z</time>
      </trkpt>
      <trkpt lat="43.55674" lon="6.91535">
        <ele>302.20001220703</ele>
        <time>2010-12-09T12:55:43.000Z</time>
      </trkpt>
      <trkpt lat="43.55683" lon="6.91524">
        <ele>304.39999389648</ele>
        <time>2010-12-09T12:55:49.000Z</time>
      </trkpt>
      <trkpt lat="43.55692" lon="6.91504">
        <ele>305.79998779297</ele>
        <time>2010-12-09T12:55:58.000Z</time>
      </trkpt>
      <trkpt lat="43.55697" lon="6.91493">
        <ele>306.20001220703</ele>
        <time>2010-12-09T12:56:04.000Z</time>
      </trkpt>
      <trkpt lat="43.55704" lon="6.91483">
        <ele>306.79998779297</ele>
        <time>2010-12-09T12:56:10.000Z</time>
      </trkpt>
      <trkpt lat="43.55709" lon="6.91475">
        <ele>307.39999389648</ele>
        <time>2010-12-09T12:56:15.000Z</time>
      </trkpt>
      <trkpt lat="43.55718" lon="6.91465">
        <ele>308.20001220703</ele>
        <time>2010-12-09T12:56:22.000Z</time>
      </trkpt>
      <trkpt lat="43.55725" lon="6.91452">
        <ele>308.20001220703</ele>
        <time>2010-12-09T12:56:28.000Z</time>
      </trkpt>
      <trkpt lat="43.55737" lon="6.9145">
        <ele>311.20001220703</ele>
        <time>2010-12-09T12:56:34.000Z</time>
      </trkpt>
      <trkpt lat="43.55753" lon="6.91449">
        <ele>315.60000610352</ele>
        <time>2010-12-09T12:56:41.000Z</time>
      </trkpt>
      <trkpt lat="43.55764" lon="6.91446">
        <ele>318.60000610352</ele>
        <time>2010-12-09T12:56:46.000Z</time>
      </trkpt>
      <trkpt lat="43.55774" lon="6.91434">
        <ele>319.39999389648</ele>
        <time>2010-12-09T12:56:52.000Z</time>
      </trkpt>
      <trkpt lat="43.55788" lon="6.91414">
        <ele>321</ele>
        <time>2010-12-09T12:57:00.000Z</time>
      </trkpt>
      <trkpt lat="43.55801" lon="6.91397">
        <ele>326.20001220703</ele>
        <time>2010-12-09T12:57:07.000Z</time>
      </trkpt>
      <trkpt lat="43.55808" lon="6.91382">
        <ele>328.79998779297</ele>
        <time>2010-12-09T12:57:12.000Z</time>
      </trkpt>
      <trkpt lat="43.55807" lon="6.91374">
        <ele>328.60000610352</ele>
        <time>2010-12-09T12:57:14.000Z</time>
      </trkpt>
      <trkpt lat="43.5579" lon="6.91359">
        <ele>323</ele>
        <time>2010-12-09T12:57:20.000Z</time>
      </trkpt>
      <trkpt lat="43.5578" lon="6.91341">
        <ele>319.60000610352</ele>
        <time>2010-12-09T12:57:24.000Z</time>
      </trkpt>
      <trkpt lat="43.55783" lon="6.91315">
        <ele>323.20001220703</ele>
        <time>2010-12-09T12:57:29.000Z</time>
      </trkpt>
      <trkpt lat="43.55786" lon="6.91296">
        <ele>327</ele>
        <time>2010-12-09T12:57:33.000Z</time>
      </trkpt>
      <trkpt lat="43.55776" lon="6.91285">
        <ele>325.39999389648</ele>
        <time>2010-12-09T12:57:37.000Z</time>
      </trkpt>
      <trkpt lat="43.55763" lon="6.91287">
        <ele>321</ele>
        <time>2010-12-09T12:57:41.000Z</time>
      </trkpt>
      <trkpt lat="43.5576" lon="6.91287">
        <ele>319.79998779297</ele>
        <time>2010-12-09T12:57:42.000Z</time>
      </trkpt>
      <trkpt lat="43.55738" lon="6.91279">
        <ele>315.20001220703</ele>
        <time>2010-12-09T12:57:49.000Z</time>
      </trkpt>
      <trkpt lat="43.55733" lon="6.9126">
        <ele>317</ele>
        <time>2010-12-09T12:57:54.000Z</time>
      </trkpt>
      <trkpt lat="43.55729" lon="6.91241">
        <ele>319.39999389648</ele>
        <time>2010-12-09T12:58:01.000Z</time>
      </trkpt>
      <trkpt lat="43.55729" lon="6.91219">
        <ele>322.39999389648</ele>
        <time>2010-12-09T12:58:09.000Z</time>
      </trkpt>
      <trkpt lat="43.55728" lon="6.912">
        <ele>324.79998779297</ele>
        <time>2010-12-09T12:58:16.000Z</time>
      </trkpt>
      <trkpt lat="43.55723" lon="6.9118">
        <ele>326.39999389648</ele>
        <time>2010-12-09T12:58:23.000Z</time>
      </trkpt>
      <trkpt lat="43.55722" lon="6.91163">
        <ele>328.60000610352</ele>
        <time>2010-12-09T12:58:29.000Z</time>
      </trkpt>
      <trkpt lat="43.55727" lon="6.91145">
        <ele>332.20001220703</ele>
        <time>2010-12-09T12:58:36.000Z</time>
      </trkpt>
      <trkpt lat="43.5573" lon="6.91129">
        <ele>335.20001220703</ele>
        <time>2010-12-09T12:58:43.000Z</time>
      </trkpt>
      <trkpt lat="43.55731" lon="6.91112">
        <ele>337.39999389648</ele>
        <time>2010-12-09T12:58:50.000Z</time>
      </trkpt>
      <trkpt lat="43.55732" lon="6.91094">
        <ele>340.20001220703</ele>
        <time>2010-12-09T12:58:57.000Z</time>
      </trkpt>
      <trkpt lat="43.55733" lon="6.91078">
        <ele>343</ele>
        <time>2010-12-09T12:59:03.000Z</time>
      </trkpt>
      <trkpt lat="43.55728" lon="6.91069">
        <ele>344</ele>
        <time>2010-12-09T12:59:07.000Z</time>
      </trkpt>
      <trkpt lat="43.55715" lon="6.91064">
        <ele>342</ele>
        <time>2010-12-09T12:59:14.000Z</time>
      </trkpt>
      <trkpt lat="43.557" lon="6.91073">
        <ele>336</ele>
        <time>2010-12-09T12:59:22.000Z</time>
      </trkpt>
      <trkpt lat="43.55686" lon="6.9108">
        <ele>330.79998779297</ele>
        <time>2010-12-09T12:59:29.000Z</time>
      </trkpt>
      <trkpt lat="43.55675" lon="6.91074">
        <ele>329.60000610352</ele>
        <time>2010-12-09T12:59:35.000Z</time>
      </trkpt>
      <trkpt lat="43.55668" lon="6.91057">
        <ele>332.20001220703</ele>
        <time>2010-12-09T12:59:42.000Z</time>
      </trkpt>
      <trkpt lat="43.55664" lon="6.91038">
        <ele>336.20001220703</ele>
        <time>2010-12-09T12:59:49.000Z</time>
      </trkpt>
      <trkpt lat="43.55661" lon="6.91015">
        <ele>341.39999389648</ele>
        <time>2010-12-09T12:59:57.000Z</time>
      </trkpt>
      <trkpt lat="43.55652" lon="6.90986">
        <ele>346.79998779297</ele>
        <time>2010-12-09T13:00:07.000Z</time>
      </trkpt>
      <trkpt lat="43.55643" lon="6.90971">
        <ele>348</ele>
        <time>2010-12-09T13:00:14.000Z</time>
      </trkpt>
      <trkpt lat="43.55632" lon="6.90957">
        <ele>348.79998779297</ele>
        <time>2010-12-09T13:00:21.000Z</time>
      </trkpt>
      <trkpt lat="43.55618" lon="6.90947">
        <ele>347.60000610352</ele>
        <time>2010-12-09T13:00:29.000Z</time>
      </trkpt>
      <trkpt lat="43.55604" lon="6.90943">
        <ele>345</ele>
        <time>2010-12-09T13:00:36.000Z</time>
      </trkpt>
      <trkpt lat="43.5559" lon="6.90936">
        <ele>343.20001220703</ele>
        <time>2010-12-09T13:00:43.000Z</time>
      </trkpt>
      <trkpt lat="43.55588" lon="6.90934">
        <ele>343.20001220703</ele>
        <time>2010-12-09T13:00:44.000Z</time>
      </trkpt>
      <trkpt lat="43.55582" lon="6.90915">
        <ele>345.60000610352</ele>
        <time>2010-12-09T13:00:51.000Z</time>
      </trkpt>
      <trkpt lat="43.55578" lon="6.90894">
        <ele>346</ele>
        <time>2010-12-09T13:00:58.000Z</time>
      </trkpt>
      <trkpt lat="43.55574" lon="6.90875">
        <ele>346.20001220703</ele>
        <time>2010-12-09T13:01:04.000Z</time>
      </trkpt>
      <trkpt lat="43.55573" lon="6.90852">
        <ele>348</ele>
        <time>2010-12-09T13:01:11.000Z</time>
      </trkpt>
      <trkpt lat="43.55577" lon="6.9084">
        <ele>349.79998779297</ele>
        <time>2010-12-09T13:01:15.000Z</time>
      </trkpt>
      <trkpt lat="43.55582" lon="6.90833">
        <ele>351.39999389648</ele>
        <time>2010-12-09T13:01:21.000Z</time>
      </trkpt>
      <trkpt lat="43.55582" lon="6.90833">
        <ele>351.60000610352</ele>
        <time>2010-12-09T13:01:23.000Z</time>
      </trkpt>
      <trkpt lat="43.55319" lon="6.90317">
        <ele>245.80000305176</ele>
        <time>2010-12-09T13:09:49.000Z</time>
      </trkpt>
      <trkpt lat="43.55318" lon="6.90317">
        <ele>245.80000305176</ele>
        <time>2010-12-09T13:09:50.000Z</time>
      </trkpt>
      <trkpt lat="43.55316" lon="6.90317">
        <ele>245.80000305176</ele>
        <time>2010-12-09T13:09:52.000Z</time>
      </trkpt>
      <trkpt lat="43.55318" lon="6.9031">
        <ele>244.19999694824</ele>
        <time>2010-12-09T13:09:56.000Z</time>
      </trkpt>
      <trkpt lat="43.55327" lon="6.90315">
        <ele>246</ele>
        <time>2010-12-09T13:10:00.000Z</time>
      </trkpt>
      <trkpt lat="43.55332" lon="6.90326">
        <ele>249.39999389648</ele>
        <time>2010-12-09T13:10:03.000Z</time>
      </trkpt>
      <trkpt lat="43.55341" lon="6.90354">
        <ele>254</ele>
        <time>2010-12-09T13:10:09.000Z</time>
      </trkpt>
      <trkpt lat="43.55351" lon="6.90372">
        <ele>256</ele>
        <time>2010-12-09T13:10:12.000Z</time>
      </trkpt>
      <trkpt lat="43.55377" lon="6.90392">
        <ele>257</ele>
        <time>2010-12-09T13:10:17.000Z</time>
      </trkpt>
      <trkpt lat="43.55388" lon="6.90398">
        <ele>257.39999389648</ele>
        <time>2010-12-09T13:10:19.000Z</time>
      </trkpt>
      <trkpt lat="43.55404" lon="6.90406">
        <ele>258.20001220703</ele>
        <time>2010-12-09T13:10:22.000Z</time>
      </trkpt>
      <trkpt lat="43.55418" lon="6.90415">
        <ele>260</ele>
        <time>2010-12-09T13:10:25.000Z</time>
      </trkpt>
      <trkpt lat="43.5544" lon="6.90421">
        <ele>258.39999389648</ele>
        <time>2010-12-09T13:10:29.000Z</time>
      </trkpt>
      <trkpt lat="43.5546" lon="6.90434">
        <ele>260.20001220703</ele>
        <time>2010-12-09T13:10:34.000Z</time>
      </trkpt>
      <trkpt lat="43.5548" lon="6.9045">
        <ele>262.60000610352</ele>
        <time>2010-12-09T13:10:41.000Z</time>
      </trkpt>
      <trkpt lat="43.55497" lon="6.90466">
        <ele>265.39999389648</ele>
        <time>2010-12-09T13:10:49.000Z</time>
      </trkpt>
      <trkpt lat="43.55509" lon="6.90472">
        <ele>266.60000610352</ele>
        <time>2010-12-09T13:10:55.000Z</time>
      </trkpt>
      <trkpt lat="43.55517" lon="6.90484">
        <ele>270.39999389648</ele>
        <time>2010-12-09T13:11:01.000Z</time>
      </trkpt>
      <trkpt lat="43.55526" lon="6.90495">
        <ele>273.60000610352</ele>
        <time>2010-12-09T13:11:07.000Z</time>
      </trkpt>
      <trkpt lat="43.55534" lon="6.90511">
        <ele>278</ele>
        <time>2010-12-09T13:11:14.000Z</time>
      </trkpt>
      <trkpt lat="43.55539" lon="6.90525">
        <ele>282.39999389648</ele>
        <time>2010-12-09T13:11:21.000Z</time>
      </trkpt>
      <trkpt lat="43.55543" lon="6.90539">
        <ele>286.39999389648</ele>
        <time>2010-12-09T13:11:28.000Z</time>
      </trkpt>
      <trkpt lat="43.5555" lon="6.9055">
        <ele>289.20001220703</ele>
        <time>2010-12-09T13:11:34.000Z</time>
      </trkpt>
      <trkpt lat="43.55558" lon="6.90551">
        <ele>288.79998779297</ele>
        <time>2010-12-09T13:11:39.000Z</time>
      </trkpt>
      <trkpt lat="43.55567" lon="6.90541">
        <ele>284.79998779297</ele>
        <time>2010-12-09T13:11:45.000Z</time>
      </trkpt>
      <trkpt lat="43.55571" lon="6.90528">
        <ele>280.20001220703</ele>
        <time>2010-12-09T13:11:50.000Z</time>
      </trkpt>
      <trkpt lat="43.5558" lon="6.90516">
        <ele>275.39999389648</ele>
        <time>2010-12-09T13:11:56.000Z</time>
      </trkpt>
      <trkpt lat="43.55589" lon="6.90506">
        <ele>272</ele>
        <time>2010-12-09T13:12:02.000Z</time>
      </trkpt>
      <trkpt lat="43.55601" lon="6.90499">
        <ele>270.39999389648</ele>
        <time>2010-12-09T13:12:09.000Z</time>
      </trkpt>
      <trkpt lat="43.55613" lon="6.905">
        <ele>271.20001220703</ele>
        <time>2010-12-09T13:12:16.000Z</time>
      </trkpt>
      <trkpt lat="43.55627" lon="6.90507">
        <ele>274.39999389648</ele>
        <time>2010-12-09T13:12:25.000Z</time>
      </trkpt>
      <trkpt lat="43.55634" lon="6.90518">
        <ele>278.60000610352</ele>
        <time>2010-12-09T13:12:32.000Z</time>
      </trkpt>
      <trkpt lat="43.5564" lon="6.90526">
        <ele>281.79998779297</ele>
        <time>2010-12-09T13:12:38.000Z</time>
      </trkpt>
      <trkpt lat="43.55649" lon="6.90533">
        <ele>284.60000610352</ele>
        <time>2010-12-09T13:12:44.000Z</time>
      </trkpt>
      <trkpt lat="43.5566" lon="6.90538">
        <ele>287.20001220703</ele>
        <time>2010-12-09T13:12:51.000Z</time>
      </trkpt>
      <trkpt lat="43.55666" lon="6.90549">
        <ele>291.60000610352</ele>
        <time>2010-12-09T13:12:57.000Z</time>
      </trkpt>
      <trkpt lat="43.55672" lon="6.90563">
        <ele>296.60000610352</ele>
        <time>2010-12-09T13:13:04.000Z</time>
      </trkpt>
      <trkpt lat="43.55675" lon="6.90569">
        <ele>299</ele>
        <time>2010-12-09T13:13:08.000Z</time>
      </trkpt>
      <trkpt lat="43.55681" lon="6.9058">
        <ele>302.79998779297</ele>
        <time>2010-12-09T13:13:15.000Z</time>
      </trkpt>
      <trkpt lat="43.55683" lon="6.90581">
        <ele>303.39999389648</ele>
        <time>2010-12-09T13:13:17.000Z</time>
      </trkpt>
      <trkpt lat="43.55686" lon="6.90581">
        <ele>303.39999389648</ele>
        <time>2010-12-09T13:13:21.000Z</time>
      </trkpt>
      <trkpt lat="43.557" lon="6.90573">
        <ele>300.79998779297</ele>
        <time>2010-12-09T13:13:29.000Z</time>
      </trkpt>
      <trkpt lat="43.55714" lon="6.90566">
        <ele>299</ele>
        <time>2010-12-09T13:13:37.000Z</time>
      </trkpt>
      <trkpt lat="43.55725" lon="6.90566">
        <ele>299.60000610352</ele>
        <time>2010-12-09T13:13:43.000Z</time>
      </trkpt>
      <trkpt lat="43.55736" lon="6.90574">
        <ele>302.20001220703</ele>
        <time>2010-12-09T13:13:50.000Z</time>
      </trkpt>
      <trkpt lat="43.55738" lon="6.90578">
        <ele>303</ele>
        <time>2010-12-09T13:13:52.000Z</time>
      </trkpt>
      <trkpt lat="43.55739" lon="6.90584">
        <ele>305</ele>
        <time>2010-12-09T13:13:58.000Z</time>
      </trkpt>
      <trkpt lat="43.55739" lon="6.90584">
        <ele>305.20001220703</ele>
        <time>2010-12-09T13:14:08.000Z</time>
      </trkpt>
      <trkpt lat="43.55743" lon="6.90587">
        <ele>306.39999389648</ele>
        <time>2010-12-09T13:14:15.000Z</time>
      </trkpt>
      <trkpt lat="43.55747" lon="6.90597">
        <ele>310</ele>
        <time>2010-12-09T13:14:21.000Z</time>
      </trkpt>
      <trkpt lat="43.55756" lon="6.906">
        <ele>311.79998779297</ele>
        <time>2010-12-09T13:14:27.000Z</time>
      </trkpt>
      <trkpt lat="43.55761" lon="6.90597">
        <ele>311.39999389648</ele>
        <time>2010-12-09T13:14:30.000Z</time>
      </trkpt>
      <trkpt lat="43.55772" lon="6.90584">
        <ele>308.20001220703</ele>
        <time>2010-12-09T13:14:37.000Z</time>
      </trkpt>
      <trkpt lat="43.55784" lon="6.9058">
        <ele>308.79998779297</ele>
        <time>2010-12-09T13:14:44.000Z</time>
      </trkpt>
      <trkpt lat="43.55795" lon="6.90577">
        <ele>310</ele>
        <time>2010-12-09T13:14:51.000Z</time>
      </trkpt>
      <trkpt lat="43.55805" lon="6.9057">
        <ele>310</ele>
        <time>2010-12-09T13:14:58.000Z</time>
      </trkpt>
      <trkpt lat="43.55816" lon="6.90565">
        <ele>310.39999389648</ele>
        <time>2010-12-09T13:15:05.000Z</time>
      </trkpt>
      <trkpt lat="43.55824" lon="6.90556">
        <ele>309.79998779297</ele>
        <time>2010-12-09T13:15:12.000Z</time>
      </trkpt>
      <trkpt lat="43.55828" lon="6.90543">
        <ele>307.79998779297</ele>
        <time>2010-12-09T13:15:18.000Z</time>
      </trkpt>
      <trkpt lat="43.55835" lon="6.90542">
        <ele>308.79998779297</ele>
        <time>2010-12-09T13:15:23.000Z</time>
      </trkpt>
      <trkpt lat="43.55847" lon="6.9054">
        <ele>310</ele>
        <time>2010-12-09T13:15:31.000Z</time>
      </trkpt>
      <trkpt lat="43.55849" lon="6.9054">
        <ele>310.20001220703</ele>
        <time>2010-12-09T13:15:32.000Z</time>
      </trkpt>
      <trkpt lat="43.55849" lon="6.9054">
        <ele>310.39999389648</ele>
        <time>2010-12-09T13:15:39.000Z</time>
      </trkpt>
      <trkpt lat="43.55848" lon="6.90541">
        <ele>310.39999389648</ele>
        <time>2010-12-09T13:15:52.000Z</time>
      </trkpt>
      <trkpt lat="43.5585" lon="6.90542">
        <ele>310.79998779297</ele>
        <time>2010-12-09T13:15:58.000Z</time>
      </trkpt>
      <trkpt lat="43.55867" lon="6.90552">
        <ele>315</ele>
        <time>2010-12-09T13:16:06.000Z</time>
      </trkpt>
      <trkpt lat="43.55881" lon="6.90568">
        <ele>320</ele>
        <time>2010-12-09T13:16:13.000Z</time>
      </trkpt>
      <trkpt lat="43.55881" lon="6.90589">
        <ele>323.60000610352</ele>
        <time>2010-12-09T13:16:19.000Z</time>
      </trkpt>
      <trkpt lat="43.55877" lon="6.90613">
        <ele>328.20001220703</ele>
        <time>2010-12-09T13:16:25.000Z</time>
      </trkpt>
      <trkpt lat="43.55882" lon="6.9063">
        <ele>331.60000610352</ele>
        <time>2010-12-09T13:16:29.000Z</time>
      </trkpt>
      <trkpt lat="43.55888" lon="6.90635">
        <ele>332.60000610352</ele>
        <time>2010-12-09T13:16:31.000Z</time>
      </trkpt>
      <trkpt lat="43.55894" lon="6.90628">
        <ele>331.60000610352</ele>
        <time>2010-12-09T13:16:35.000Z</time>
      </trkpt>
      <trkpt lat="43.55894" lon="6.90624">
        <ele>331</ele>
        <time>2010-12-09T13:16:36.000Z</time>
      </trkpt>
      <trkpt lat="43.55902" lon="6.90598">
        <ele>327.20001220703</ele>
        <time>2010-12-09T13:16:42.000Z</time>
      </trkpt>
      <trkpt lat="43.55915" lon="6.90572">
        <ele>325</ele>
        <time>2010-12-09T13:16:48.000Z</time>
      </trkpt>
      <trkpt lat="43.55927" lon="6.90539">
        <ele>323.20001220703</ele>
        <time>2010-12-09T13:16:55.000Z</time>
      </trkpt>
      <trkpt lat="43.55935" lon="6.90493">
        <ele>317.79998779297</ele>
        <time>2010-12-09T13:17:04.000Z</time>
      </trkpt>
      <trkpt lat="43.55949" lon="6.90467">
        <ele>315</ele>
        <time>2010-12-09T13:17:10.000Z</time>
      </trkpt>
      <trkpt lat="43.55973" lon="6.90452">
        <ele>317.20001220703</ele>
        <time>2010-12-09T13:17:16.000Z</time>
      </trkpt>
      <trkpt lat="43.5599" lon="6.90446">
        <ele>319</ele>
        <time>2010-12-09T13:17:20.000Z</time>
      </trkpt>
      <trkpt lat="43.56029" lon="6.90431">
        <ele>323.79998779297</ele>
        <time>2010-12-09T13:17:29.000Z</time>
      </trkpt>
      <trkpt lat="43.56054" lon="6.90415">
        <ele>324</ele>
        <time>2010-12-09T13:17:35.000Z</time>
      </trkpt>
      <trkpt lat="43.56057" lon="6.90413">
        <ele>324.20001220703</ele>
        <time>2010-12-09T13:17:36.000Z</time>
      </trkpt>
      <trkpt lat="43.56071" lon="6.90396">
        <ele>324</ele>
        <time>2010-12-09T13:17:40.000Z</time>
      </trkpt>
      <trkpt lat="43.56093" lon="6.90378">
        <ele>325.20001220703</ele>
        <time>2010-12-09T13:17:46.000Z</time>
      </trkpt>
      <trkpt lat="43.56097" lon="6.90377">
        <ele>326</ele>
        <time>2010-12-09T13:17:47.000Z</time>
      </trkpt>
      <trkpt lat="43.56113" lon="6.90375">
        <ele>329.39999389648</ele>
        <time>2010-12-09T13:17:51.000Z</time>
      </trkpt>
      <trkpt lat="43.56134" lon="6.90356">
        <ele>330</ele>
        <time>2010-12-09T13:17:56.000Z</time>
      </trkpt>
      <trkpt lat="43.56152" lon="6.90343">
        <ele>331.20001220703</ele>
        <time>2010-12-09T13:18:00.000Z</time>
      </trkpt>
      <trkpt lat="43.56155" lon="6.90328">
        <ele>331</ele>
        <time>2010-12-09T13:18:05.000Z</time>
      </trkpt>
      <trkpt lat="43.56151" lon="6.90323">
        <ele>331.39999389648</ele>
        <time>2010-12-09T13:18:07.000Z</time>
      </trkpt>
      <trkpt lat="43.56132" lon="6.90314">
        <ele>330</ele>
        <time>2010-12-09T13:18:13.000Z</time>
      </trkpt>
      <trkpt lat="43.56108" lon="6.90302">
        <ele>328</ele>
        <time>2010-12-09T13:18:20.000Z</time>
      </trkpt>
      <trkpt lat="43.56093" lon="6.9029">
        <ele>327.60000610352</ele>
        <time>2010-12-09T13:18:25.000Z</time>
      </trkpt>
      <trkpt lat="43.56066" lon="6.90285">
        <ele>323.79998779297</ele>
        <time>2010-12-09T13:18:33.000Z</time>
      </trkpt>
      <trkpt lat="43.56055" lon="6.90269">
        <ele>326.60000610352</ele>
        <time>2010-12-09T13:18:38.000Z</time>
      </trkpt>
      <trkpt lat="43.56051" lon="6.90253">
        <ele>330.20001220703</ele>
        <time>2010-12-09T13:18:42.000Z</time>
      </trkpt>
      <trkpt lat="43.56041" lon="6.9025">
        <ele>329.20001220703</ele>
        <time>2010-12-09T13:18:46.000Z</time>
      </trkpt>
      <trkpt lat="43.56036" lon="6.90254">
        <ele>327.60000610352</ele>
        <time>2010-12-09T13:18:48.000Z</time>
      </trkpt>
      <trkpt lat="43.56022" lon="6.90262">
        <ele>323</ele>
        <time>2010-12-09T13:18:54.000Z</time>
      </trkpt>
      <trkpt lat="43.56006" lon="6.90256">
        <ele>322.20001220703</ele>
        <time>2010-12-09T13:19:00.000Z</time>
      </trkpt>
      <trkpt lat="43.55984" lon="6.90247">
        <ele>321.20001220703</ele>
        <time>2010-12-09T13:19:08.000Z</time>
      </trkpt>
      <trkpt lat="43.5597" lon="6.90233">
        <ele>323.20001220703</ele>
        <time>2010-12-09T13:19:14.000Z</time>
      </trkpt>
      <trkpt lat="43.55956" lon="6.90211">
        <ele>328</ele>
        <time>2010-12-09T13:19:21.000Z</time>
      </trkpt>
      <trkpt lat="43.55951" lon="6.9019">
        <ele>333.79998779297</ele>
        <time>2010-12-09T13:19:27.000Z</time>
      </trkpt>
      <trkpt lat="43.55946" lon="6.9017">
        <ele>339.20001220703</ele>
        <time>2010-12-09T13:19:34.000Z</time>
      </trkpt>
      <trkpt lat="43.5594" lon="6.90149">
        <ele>345.20001220703</ele>
        <time>2010-12-09T13:19:42.000Z</time>
      </trkpt>
      <trkpt lat="43.55936" lon="6.90131">
        <ele>350.20001220703</ele>
        <time>2010-12-09T13:19:49.000Z</time>
      </trkpt>
      <trkpt lat="43.55932" lon="6.90116">
        <ele>354.60000610352</ele>
        <time>2010-12-09T13:19:55.000Z</time>
      </trkpt>
      <trkpt lat="43.55926" lon="6.90099">
        <ele>358.79998779297</ele>
        <time>2010-12-09T13:20:03.000Z</time>
      </trkpt>
      <trkpt lat="43.55915" lon="6.90094">
        <ele>358.79998779297</ele>
        <time>2010-12-09T13:20:10.000Z</time>
      </trkpt>
      <trkpt lat="43.55907" lon="6.90103">
        <ele>357</ele>
        <time>2010-12-09T13:20:15.000Z</time>
      </trkpt>
      <trkpt lat="43.55896" lon="6.90122">
        <ele>352</ele>
        <time>2010-12-09T13:20:22.000Z</time>
      </trkpt>
      <trkpt lat="43.5588" lon="6.90148">
        <ele>345.20001220703</ele>
        <time>2010-12-09T13:20:30.000Z</time>
      </trkpt>
      <trkpt lat="43.55871" lon="6.90164">
        <ele>340.60000610352</ele>
        <time>2010-12-09T13:20:35.000Z</time>
      </trkpt>
      <trkpt lat="43.55856" lon="6.90179">
        <ele>336.39999389648</ele>
        <time>2010-12-09T13:20:41.000Z</time>
      </trkpt>
      <trkpt lat="43.55842" lon="6.90183">
        <ele>336.39999389648</ele>
        <time>2010-12-09T13:20:46.000Z</time>
      </trkpt>
      <trkpt lat="43.5583" lon="6.90179">
        <ele>338.60000610352</ele>
        <time>2010-12-09T13:20:50.000Z</time>
      </trkpt>
      <trkpt lat="43.5581" lon="6.90163">
        <ele>342</ele>
        <time>2010-12-09T13:20:58.000Z</time>
      </trkpt>
      <trkpt lat="43.55795" lon="6.90151">
        <ele>344.20001220703</ele>
        <time>2010-12-09T13:21:04.000Z</time>
      </trkpt>
      <trkpt lat="43.55774" lon="6.90133">
        <ele>346.79998779297</ele>
        <time>2010-12-09T13:21:13.000Z</time>
      </trkpt>
      <trkpt lat="43.55759" lon="6.90124">
        <ele>346.39999389648</ele>
        <time>2010-12-09T13:21:19.000Z</time>
      </trkpt>
      <trkpt lat="43.55751" lon="6.90122">
        <ele>345.39999389648</ele>
        <time>2010-12-09T13:21:22.000Z</time>
      </trkpt>
      <trkpt lat="43.5575" lon="6.90112">
        <ele>348</ele>
        <time>2010-12-09T13:21:26.000Z</time>
      </trkpt>
      <trkpt lat="43.55752" lon="6.90112">
        <ele>348.60000610352</ele>
        <time>2010-12-09T13:21:27.000Z</time>
      </trkpt>
      <trkpt lat="43.55767" lon="6.90116">
        <ele>350.39999389648</ele>
        <time>2010-12-09T13:21:35.000Z</time>
      </trkpt>
      <trkpt lat="43.55783" lon="6.90124">
        <ele>351.39999389648</ele>
        <time>2010-12-09T13:21:44.000Z</time>
      </trkpt>
      <trkpt lat="43.55796" lon="6.90132">
        <ele>351</ele>
        <time>2010-12-09T13:21:51.000Z</time>
      </trkpt>
      <trkpt lat="43.55806" lon="6.9014">
        <ele>350.20001220703</ele>
        <time>2010-12-09T13:21:57.000Z</time>
      </trkpt>
      <trkpt lat="43.55819" lon="6.90144">
        <ele>350.60000610352</ele>
        <time>2010-12-09T13:22:04.000Z</time>
      </trkpt>
      <trkpt lat="43.55833" lon="6.9015">
        <ele>350.79998779297</ele>
        <time>2010-12-09T13:22:12.000Z</time>
      </trkpt>
      <trkpt lat="43.55838" lon="6.90151">
        <ele>349.60000610352</ele>
        <time>2010-12-09T13:22:15.000Z</time>
      </trkpt>
      <trkpt lat="43.55847" lon="6.90146">
        <ele>350.20001220703</ele>
        <time>2010-12-09T13:22:21.000Z</time>
      </trkpt>
      <trkpt lat="43.55858" lon="6.90135">
        <ele>353</ele>
        <time>2010-12-09T13:22:29.000Z</time>
      </trkpt>
      <trkpt lat="43.55865" lon="6.90118">
        <ele>358.60000610352</ele>
        <time>2010-12-09T13:22:37.000Z</time>
      </trkpt>
      <trkpt lat="43.5587" lon="6.90101">
        <ele>364.20001220703</ele>
        <time>2010-12-09T13:22:44.000Z</time>
      </trkpt>
      <trkpt lat="43.55875" lon="6.90084">
        <ele>369.60000610352</ele>
        <time>2010-12-09T13:22:51.000Z</time>
      </trkpt>
      <trkpt lat="43.55879" lon="6.90063">
        <ele>376</ele>
        <time>2010-12-09T13:22:59.000Z</time>
      </trkpt>
      <trkpt lat="43.55884" lon="6.90048">
        <ele>380.39999389648</ele>
        <time>2010-12-09T13:23:05.000Z</time>
      </trkpt>
      <trkpt lat="43.55892" lon="6.90037">
        <ele>383</ele>
        <time>2010-12-09T13:23:11.000Z</time>
      </trkpt>
      <trkpt lat="43.55903" lon="6.90024">
        <ele>386.20001220703</ele>
        <time>2010-12-09T13:23:18.000Z</time>
      </trkpt>
      <trkpt lat="43.55912" lon="6.90013">
        <ele>389.20001220703</ele>
        <time>2010-12-09T13:23:24.000Z</time>
      </trkpt>
      <trkpt lat="43.55927" lon="6.90001">
        <ele>396.20001220703</ele>
        <time>2010-12-09T13:23:33.000Z</time>
      </trkpt>
      <trkpt lat="43.55938" lon="6.90002">
        <ele>398.39999389648</ele>
        <time>2010-12-09T13:23:39.000Z</time>
      </trkpt>
      <trkpt lat="43.55948" lon="6.9001">
        <ele>397.60000610352</ele>
        <time>2010-12-09T13:23:46.000Z</time>
      </trkpt>
      <trkpt lat="43.55951" lon="6.90023">
        <ele>393.60000610352</ele>
        <time>2010-12-09T13:23:52.000Z</time>
      </trkpt>
      <trkpt lat="43.55955" lon="6.90041">
        <ele>387.79998779297</ele>
        <time>2010-12-09T13:23:59.000Z</time>
      </trkpt>
      <trkpt lat="43.55965" lon="6.9005">
        <ele>386.39999389648</ele>
        <time>2010-12-09T13:24:06.000Z</time>
      </trkpt>
      <trkpt lat="43.55973" lon="6.90058">
        <ele>385.60000610352</ele>
        <time>2010-12-09T13:24:12.000Z</time>
      </trkpt>
      <trkpt lat="43.55986" lon="6.90066">
        <ele>385.39999389648</ele>
        <time>2010-12-09T13:24:20.000Z</time>
      </trkpt>
      <trkpt lat="43.55996" lon="6.90076">
        <ele>383.60000610352</ele>
        <time>2010-12-09T13:24:27.000Z</time>
      </trkpt>
      <trkpt lat="43.56007" lon="6.90089">
        <ele>382.20001220703</ele>
        <time>2010-12-09T13:24:34.000Z</time>
      </trkpt>
      <trkpt lat="43.56023" lon="6.90107">
        <ele>380.60000610352</ele>
        <time>2010-12-09T13:24:44.000Z</time>
      </trkpt>
      <trkpt lat="43.56037" lon="6.90114">
        <ele>382.20001220703</ele>
        <time>2010-12-09T13:24:51.000Z</time>
      </trkpt>
      <trkpt lat="43.56053" lon="6.90111">
        <ele>388.39999389648</ele>
        <time>2010-12-09T13:24:59.000Z</time>
      </trkpt>
      <trkpt lat="43.56064" lon="6.90107">
        <ele>394</ele>
        <time>2010-12-09T13:25:05.000Z</time>
      </trkpt>
      <trkpt lat="43.56078" lon="6.90109">
        <ele>397.39999389648</ele>
        <time>2010-12-09T13:25:13.000Z</time>
      </trkpt>
      <trkpt lat="43.56091" lon="6.90106">
        <ele>402.60000610352</ele>
        <time>2010-12-09T13:25:20.000Z</time>
      </trkpt>
      <trkpt lat="43.56102" lon="6.90112">
        <ele>402.39999389648</ele>
        <time>2010-12-09T13:25:26.000Z</time>
      </trkpt>
      <trkpt lat="43.56111" lon="6.90127">
        <ele>397.60000610352</ele>
        <time>2010-12-09T13:25:33.000Z</time>
      </trkpt>
      <trkpt lat="43.56124" lon="6.90134">
        <ele>397.39999389648</ele>
        <time>2010-12-09T13:25:40.000Z</time>
      </trkpt>
      <trkpt lat="43.56139" lon="6.90138">
        <ele>399.20001220703</ele>
        <time>2010-12-09T13:25:48.000Z</time>
      </trkpt>
      <trkpt lat="43.56152" lon="6.90143">
        <ele>400.39999389648</ele>
        <time>2010-12-09T13:25:55.000Z</time>
      </trkpt>
      <trkpt lat="43.56167" lon="6.90151">
        <ele>400.60000610352</ele>
        <time>2010-12-09T13:26:03.000Z</time>
      </trkpt>
      <trkpt lat="43.5618" lon="6.90151">
        <ele>404.39999389648</ele>
        <time>2010-12-09T13:26:10.000Z</time>
      </trkpt>
      <trkpt lat="43.56193" lon="6.90149">
        <ele>409</ele>
        <time>2010-12-09T13:26:17.000Z</time>
      </trkpt>
      <trkpt lat="43.56205" lon="6.9015">
        <ele>412.39999389648</ele>
        <time>2010-12-09T13:26:23.000Z</time>
      </trkpt>
      <trkpt lat="43.56216" lon="6.90163">
        <ele>409.79998779297</ele>
        <time>2010-12-09T13:26:30.000Z</time>
      </trkpt>
      <trkpt lat="43.56225" lon="6.90178">
        <ele>406</ele>
        <time>2010-12-09T13:26:37.000Z</time>
      </trkpt>
      <trkpt lat="43.56238" lon="6.90185">
        <ele>406.60000610352</ele>
        <time>2010-12-09T13:26:44.000Z</time>
      </trkpt>
      <trkpt lat="43.56251" lon="6.90183">
        <ele>411.60000610352</ele>
        <time>2010-12-09T13:26:51.000Z</time>
      </trkpt>
      <trkpt lat="43.56259" lon="6.90178">
        <ele>415.60000610352</ele>
        <time>2010-12-09T13:26:56.000Z</time>
      </trkpt>
      <trkpt lat="43.56269" lon="6.90184">
        <ele>414.79998779297</ele>
        <time>2010-12-09T13:27:02.000Z</time>
      </trkpt>
      <trkpt lat="43.5628" lon="6.90195">
        <ele>412.39999389648</ele>
        <time>2010-12-09T13:27:09.000Z</time>
      </trkpt>
      <trkpt lat="43.56293" lon="6.90196">
        <ele>415</ele>
        <time>2010-12-09T13:27:16.000Z</time>
      </trkpt>
      <trkpt lat="43.56301" lon="6.90188">
        <ele>419.79998779297</ele>
        <time>2010-12-09T13:27:21.000Z</time>
      </trkpt>
      <trkpt lat="43.5631" lon="6.90179">
        <ele>425.60000610352</ele>
        <time>2010-12-09T13:27:27.000Z</time>
      </trkpt>
      <trkpt lat="43.56323" lon="6.90171">
        <ele>431.20001220703</ele>
        <time>2010-12-09T13:27:34.000Z</time>
      </trkpt>
      <trkpt lat="43.56332" lon="6.90174">
        <ele>431.79998779297</ele>
        <time>2010-12-09T13:27:39.000Z</time>
      </trkpt>
      <trkpt lat="43.56348" lon="6.90181">
        <ele>434</ele>
        <time>2010-12-09T13:27:48.000Z</time>
      </trkpt>
      <trkpt lat="43.56355" lon="6.90187">
        <ele>434.20001220703</ele>
        <time>2010-12-09T13:27:53.000Z</time>
      </trkpt>
      <trkpt lat="43.56361" lon="6.90203">
        <ele>431</ele>
        <time>2010-12-09T13:28:00.000Z</time>
      </trkpt>
      <trkpt lat="43.56366" lon="6.90221">
        <ele>427.39999389648</ele>
        <time>2010-12-09T13:28:07.000Z</time>
      </trkpt>
      <trkpt lat="43.5637" lon="6.90243">
        <ele>423.20001220703</ele>
        <time>2010-12-09T13:28:15.000Z</time>
      </trkpt>
      <trkpt lat="43.56376" lon="6.90254">
        <ele>423</ele>
        <time>2010-12-09T13:28:20.000Z</time>
      </trkpt>
      <trkpt lat="43.56393" lon="6.9027">
        <ele>426.79998779297</ele>
        <time>2010-12-09T13:28:29.000Z</time>
      </trkpt>
      <trkpt lat="43.56403" lon="6.90283">
        <ele>428</ele>
        <time>2010-12-09T13:28:36.000Z</time>
      </trkpt>
      <trkpt lat="43.56415" lon="6.90294">
        <ele>431.20001220703</ele>
        <time>2010-12-09T13:28:43.000Z</time>
      </trkpt>
      <trkpt lat="43.5643" lon="6.903">
        <ele>434.60000610352</ele>
        <time>2010-12-09T13:28:51.000Z</time>
      </trkpt>
      <trkpt lat="43.56446" lon="6.90308">
        <ele>437.79998779297</ele>
        <time>2010-12-09T13:29:00.000Z</time>
      </trkpt>
      <trkpt lat="43.56458" lon="6.9032">
        <ele>439.60000610352</ele>
        <time>2010-12-09T13:29:08.000Z</time>
      </trkpt>
      <trkpt lat="43.56461" lon="6.90333">
        <ele>438.60000610352</ele>
        <time>2010-12-09T13:29:14.000Z</time>
      </trkpt>
      <trkpt lat="43.56453" lon="6.90348">
        <ele>437</ele>
        <time>2010-12-09T13:29:21.000Z</time>
      </trkpt>
      <trkpt lat="43.56444" lon="6.90364">
        <ele>435.60000610352</ele>
        <time>2010-12-09T13:29:27.000Z</time>
      </trkpt>
      <trkpt lat="43.56436" lon="6.90388">
        <ele>435.20001220703</ele>
        <time>2010-12-09T13:29:35.000Z</time>
      </trkpt>
      <trkpt lat="43.56433" lon="6.90403">
        <ele>435.79998779297</ele>
        <time>2010-12-09T13:29:40.000Z</time>
      </trkpt>
      <trkpt lat="43.5642" lon="6.90429">
        <ele>436</ele>
        <time>2010-12-09T13:29:50.000Z</time>
      </trkpt>
      <trkpt lat="43.56408" lon="6.90446">
        <ele>435</ele>
        <time>2010-12-09T13:29:58.000Z</time>
      </trkpt>
      <trkpt lat="43.56402" lon="6.90459">
        <ele>435.79998779297</ele>
        <time>2010-12-09T13:30:03.000Z</time>
      </trkpt>
      <trkpt lat="43.56401" lon="6.90472">
        <ele>438</ele>
        <time>2010-12-09T13:30:09.000Z</time>
      </trkpt>
      <trkpt lat="43.56402" lon="6.90486">
        <ele>442.20001220703</ele>
        <time>2010-12-09T13:30:15.000Z</time>
      </trkpt>
      <trkpt lat="43.56397" lon="6.90505">
        <ele>444.20001220703</ele>
        <time>2010-12-09T13:30:23.000Z</time>
      </trkpt>
      <trkpt lat="43.56386" lon="6.90526">
        <ele>445.60000610352</ele>
        <time>2010-12-09T13:30:32.000Z</time>
      </trkpt>
      <trkpt lat="43.56379" lon="6.90542">
        <ele>446.60000610352</ele>
        <time>2010-12-09T13:30:39.000Z</time>
      </trkpt>
      <trkpt lat="43.5637" lon="6.90559">
        <ele>448.20001220703</ele>
        <time>2010-12-09T13:30:47.000Z</time>
      </trkpt>
      <trkpt lat="43.56366" lon="6.90576">
        <ele>451.39999389648</ele>
        <time>2010-12-09T13:30:54.000Z</time>
      </trkpt>
      <trkpt lat="43.56361" lon="6.90592">
        <ele>453.39999389648</ele>
        <time>2010-12-09T13:31:01.000Z</time>
      </trkpt>
      <trkpt lat="43.56354" lon="6.90602">
        <ele>453.20001220703</ele>
        <time>2010-12-09T13:31:07.000Z</time>
      </trkpt>
      <trkpt lat="43.56341" lon="6.90604">
        <ele>450.79998779297</ele>
        <time>2010-12-09T13:31:14.000Z</time>
      </trkpt>
      <trkpt lat="43.56328" lon="6.90609">
        <ele>448.60000610352</ele>
        <time>2010-12-09T13:31:22.000Z</time>
      </trkpt>
      <trkpt lat="43.56316" lon="6.90621">
        <ele>448.39999389648</ele>
        <time>2010-12-09T13:31:30.000Z</time>
      </trkpt>
      <trkpt lat="43.56315" lon="6.90623">
        <ele>448.60000610352</ele>
        <time>2010-12-09T13:31:31.000Z</time>
      </trkpt>
      <trkpt lat="43.56314" lon="6.90628">
        <ele>449.39999389648</ele>
        <time>2010-12-09T13:31:36.000Z</time>
      </trkpt>
      <trkpt lat="43.56313" lon="6.90628">
        <ele>449.39999389648</ele>
        <time>2010-12-09T13:31:42.000Z</time>
      </trkpt>
      <trkpt lat="43.5631" lon="6.90632">
        <ele>449.39999389648</ele>
        <time>2010-12-09T13:31:48.000Z</time>
      </trkpt>
      <trkpt lat="43.56309" lon="6.9063">
        <ele>449</ele>
        <time>2010-12-09T13:31:55.000Z</time>
      </trkpt>
      <trkpt lat="43.5631" lon="6.90631">
        <ele>449.20001220703</ele>
        <time>2010-12-09T13:32:02.000Z</time>
      </trkpt>
      <trkpt lat="43.5631" lon="6.90631">
        <ele>449.20001220703</ele>
        <time>2010-12-09T13:32:14.000Z</time>
      </trkpt>
      <trkpt lat="43.5631" lon="6.90633">
        <ele>449.79998779297</ele>
        <time>2010-12-09T13:32:27.000Z</time>
      </trkpt>
      <trkpt lat="43.56305" lon="6.90649">
        <ele>452</ele>
        <time>2010-12-09T13:32:33.000Z</time>
      </trkpt>
      <trkpt lat="43.56292" lon="6.90667">
        <ele>453.39999389648</ele>
        <time>2010-12-09T13:32:38.000Z</time>
      </trkpt>
      <trkpt lat="43.56284" lon="6.90669">
        <ele>451.79998779297</ele>
        <time>2010-12-09T13:32:40.000Z</time>
      </trkpt>
      <trkpt lat="43.56264" lon="6.90668">
        <ele>448.39999389648</ele>
        <time>2010-12-09T13:32:44.000Z</time>
      </trkpt>
      <trkpt lat="43.56254" lon="6.90669">
        <ele>446.60000610352</ele>
        <time>2010-12-09T13:32:46.000Z</time>
      </trkpt>
      <trkpt lat="43.56235" lon="6.9068">
        <ele>441.39999389648</ele>
        <time>2010-12-09T13:32:50.000Z</time>
      </trkpt>
      <trkpt lat="43.56228" lon="6.907">
        <ele>438.20001220703</ele>
        <time>2010-12-09T13:32:53.000Z</time>
      </trkpt>
      <trkpt lat="43.56231" lon="6.90725">
        <ele>438.60000610352</ele>
        <time>2010-12-09T13:32:56.000Z</time>
      </trkpt>
      <trkpt lat="43.56239" lon="6.9074">
        <ele>441.39999389648</ele>
        <time>2010-12-09T13:32:58.000Z</time>
      </trkpt>
      <trkpt lat="43.56275" lon="6.90786">
        <ele>439</ele>
        <time>2010-12-09T13:33:05.000Z</time>
      </trkpt>
      <trkpt lat="43.56301" lon="6.90803">
        <ele>439</ele>
        <time>2010-12-09T13:33:09.000Z</time>
      </trkpt>
      <trkpt lat="43.56323" lon="6.90797">
        <ele>444.39999389648</ele>
        <time>2010-12-09T13:33:12.000Z</time>
      </trkpt>
      <trkpt lat="43.5633" lon="6.90793">
        <ele>446.60000610352</ele>
        <time>2010-12-09T13:33:13.000Z</time>
      </trkpt>
      <trkpt lat="43.56368" lon="6.90784">
        <ele>453.20001220703</ele>
        <time>2010-12-09T13:33:18.000Z</time>
      </trkpt>
      <trkpt lat="43.56382" lon="6.90807">
        <ele>451.60000610352</ele>
        <time>2010-12-09T13:33:21.000Z</time>
      </trkpt>
      <trkpt lat="43.56384" lon="6.90839">
        <ele>447.79998779297</ele>
        <time>2010-12-09T13:33:24.000Z</time>
      </trkpt>
      <trkpt lat="43.56377" lon="6.90901">
        <ele>441</ele>
        <time>2010-12-09T13:33:30.000Z</time>
      </trkpt>
      <trkpt lat="43.56365" lon="6.90938">
        <ele>433.20001220703</ele>
        <time>2010-12-09T13:33:34.000Z</time>
      </trkpt>
      <trkpt lat="43.56353" lon="6.90949">
        <ele>429.79998779297</ele>
        <time>2010-12-09T13:33:37.000Z</time>
      </trkpt>
      <trkpt lat="43.56347" lon="6.90953">
        <ele>428.60000610352</ele>
        <time>2010-12-09T13:33:39.000Z</time>
      </trkpt>
      <trkpt lat="43.56338" lon="6.9095">
        <ele>427.60000610352</ele>
        <time>2010-12-09T13:33:44.000Z</time>
      </trkpt>
      <trkpt lat="43.56331" lon="6.90947">
        <ele>426.60000610352</ele>
        <time>2010-12-09T13:33:47.000Z</time>
      </trkpt>
      <trkpt lat="43.56315" lon="6.9096">
        <ele>423.20001220703</ele>
        <time>2010-12-09T13:33:51.000Z</time>
      </trkpt>
      <trkpt lat="43.56304" lon="6.90977">
        <ele>421.79998779297</ele>
        <time>2010-12-09T13:33:54.000Z</time>
      </trkpt>
      <trkpt lat="43.56293" lon="6.91">
        <ele>421.39999389648</ele>
        <time>2010-12-09T13:33:57.000Z</time>
      </trkpt>
      <trkpt lat="43.56283" lon="6.91023">
        <ele>422.20001220703</ele>
        <time>2010-12-09T13:34:00.000Z</time>
      </trkpt>
      <trkpt lat="43.56279" lon="6.91028">
        <ele>422.79998779297</ele>
        <time>2010-12-09T13:34:04.000Z</time>
      </trkpt>
      <trkpt lat="43.56278" lon="6.91026">
        <ele>422.60000610352</ele>
        <time>2010-12-09T13:34:17.000Z</time>
      </trkpt>
      <trkpt lat="43.56279" lon="6.91026">
        <ele>422.60000610352</ele>
        <time>2010-12-09T13:34:51.000Z</time>
      </trkpt>
      <trkpt lat="43.56278" lon="6.91024">
        <ele>422.39999389648</ele>
        <time>2010-12-09T13:34:58.000Z</time>
      </trkpt>
      <trkpt lat="43.56276" lon="6.91026">
        <ele>422.79998779297</ele>
        <time>2010-12-09T13:35:06.000Z</time>
      </trkpt>
      <trkpt lat="43.56275" lon="6.91026">
        <ele>422.79998779297</ele>
        <time>2010-12-09T13:35:07.000Z</time>
      </trkpt>
      <trkpt lat="43.56258" lon="6.91018">
        <ele>422.60000610352</ele>
        <time>2010-12-09T13:35:12.000Z</time>
      </trkpt>
      <trkpt lat="43.56236" lon="6.91015">
        <ele>421.60000610352</ele>
        <time>2010-12-09T13:35:16.000Z</time>
      </trkpt>
      <trkpt lat="43.56224" lon="6.91014">
        <ele>420.79998779297</ele>
        <time>2010-12-09T13:35:18.000Z</time>
      </trkpt>
      <trkpt lat="43.56197" lon="6.91013">
        <ele>419.20001220703</ele>
        <time>2010-12-09T13:35:23.000Z</time>
      </trkpt>
      <trkpt lat="43.56192" lon="6.91015">
        <ele>419.79998779297</ele>
        <time>2010-12-09T13:35:24.000Z</time>
      </trkpt>
      <trkpt lat="43.56166" lon="6.91017">
        <ele>419.39999389648</ele>
        <time>2010-12-09T13:35:30.000Z</time>
      </trkpt>
      <trkpt lat="43.56147" lon="6.91007">
        <ele>418.60000610352</ele>
        <time>2010-12-09T13:35:34.000Z</time>
      </trkpt>
      <trkpt lat="43.56125" lon="6.9099">
        <ele>416.20001220703</ele>
        <time>2010-12-09T13:35:40.000Z</time>
      </trkpt>
      <trkpt lat="43.56121" lon="6.90988">
        <ele>415.79998779297</ele>
        <time>2010-12-09T13:35:41.000Z</time>
      </trkpt>
      <trkpt lat="43.56096" lon="6.90976">
        <ele>414.60000610352</ele>
        <time>2010-12-09T13:35:47.000Z</time>
      </trkpt>
      <trkpt lat="43.56082" lon="6.90971">
        <ele>414.20001220703</ele>
        <time>2010-12-09T13:35:51.000Z</time>
      </trkpt>
      <trkpt lat="43.5606" lon="6.90964">
        <ele>412.39999389648</ele>
        <time>2010-12-09T13:35:57.000Z</time>
      </trkpt>
      <trkpt lat="43.56046" lon="6.90959">
        <ele>411.20001220703</ele>
        <time>2010-12-09T13:36:01.000Z</time>
      </trkpt>
      <trkpt lat="43.56026" lon="6.90951">
        <ele>409.79998779297</ele>
        <time>2010-12-09T13:36:05.000Z</time>
      </trkpt>
      <trkpt lat="43.56009" lon="6.90946">
        <ele>409</ele>
        <time>2010-12-09T13:36:08.000Z</time>
      </trkpt>
      <trkpt lat="43.55984" lon="6.90941">
        <ele>407.39999389648</ele>
        <time>2010-12-09T13:36:12.000Z</time>
      </trkpt>
      <trkpt lat="43.55965" lon="6.90936">
        <ele>405.20001220703</ele>
        <time>2010-12-09T13:36:15.000Z</time>
      </trkpt>
      <trkpt lat="43.55934" lon="6.90918">
        <ele>400.60000610352</ele>
        <time>2010-12-09T13:36:20.000Z</time>
      </trkpt>
      <trkpt lat="43.55916" lon="6.90907">
        <ele>397.79998779297</ele>
        <time>2010-12-09T13:36:23.000Z</time>
      </trkpt>
      <trkpt lat="43.559" lon="6.90892">
        <ele>394.60000610352</ele>
        <time>2010-12-09T13:36:27.000Z</time>
      </trkpt>
      <trkpt lat="43.55889" lon="6.90892">
        <ele>394.20001220703</ele>
        <time>2010-12-09T13:36:30.000Z</time>
      </trkpt>
      <trkpt lat="43.55885" lon="6.90892">
        <ele>394.39999389648</ele>
        <time>2010-12-09T13:36:31.000Z</time>
      </trkpt>
      <trkpt lat="43.55865" lon="6.90896">
        <ele>394.39999389648</ele>
        <time>2010-12-09T13:36:35.000Z</time>
      </trkpt>
      <trkpt lat="43.5584" lon="6.90906">
        <ele>395</ele>
        <time>2010-12-09T13:36:40.000Z</time>
      </trkpt>
      <trkpt lat="43.55836" lon="6.90904">
        <ele>394.60000610352</ele>
        <time>2010-12-09T13:36:41.000Z</time>
      </trkpt>
      <trkpt lat="43.55813" lon="6.90903">
        <ele>392.60000610352</ele>
        <time>2010-12-09T13:36:46.000Z</time>
      </trkpt>
      <trkpt lat="43.558" lon="6.90913">
        <ele>392</ele>
        <time>2010-12-09T13:36:49.000Z</time>
      </trkpt>
      <trkpt lat="43.55771" lon="6.90927">
        <ele>387</ele>
        <time>2010-12-09T13:36:55.000Z</time>
      </trkpt>
      <trkpt lat="43.5576" lon="6.90933">
        <ele>384.39999389648</ele>
        <time>2010-12-09T13:36:57.000Z</time>
      </trkpt>
      <trkpt lat="43.55742" lon="6.90946">
        <ele>378.20001220703</ele>
        <time>2010-12-09T13:37:01.000Z</time>
      </trkpt>
      <trkpt lat="43.55728" lon="6.9094">
        <ele>376</ele>
        <time>2010-12-09T13:37:05.000Z</time>
      </trkpt>
      <trkpt lat="43.55717" lon="6.90921">
        <ele>378</ele>
        <time>2010-12-09T13:37:09.000Z</time>
      </trkpt>
      <trkpt lat="43.55705" lon="6.90894">
        <ele>376.39999389648</ele>
        <time>2010-12-09T13:37:14.000Z</time>
      </trkpt>
      <trkpt lat="43.55696" lon="6.90873">
        <ele>375</ele>
        <time>2010-12-09T13:37:18.000Z</time>
      </trkpt>
      <trkpt lat="43.5569" lon="6.90871">
        <ele>373.79998779297</ele>
        <time>2010-12-09T13:37:22.000Z</time>
      </trkpt>
      <trkpt lat="43.55688" lon="6.90884">
        <ele>373</ele>
        <time>2010-12-09T13:37:25.000Z</time>
      </trkpt>
      <trkpt lat="43.55691" lon="6.909">
        <ele>373.20001220703</ele>
        <time>2010-12-09T13:37:28.000Z</time>
      </trkpt>
      <trkpt lat="43.55695" lon="6.90934">
        <ele>369.39999389648</ele>
        <time>2010-12-09T13:37:34.000Z</time>
      </trkpt>
      <trkpt lat="43.557" lon="6.90948">
        <ele>367.39999389648</ele>
        <time>2010-12-09T13:37:38.000Z</time>
      </trkpt>
      <trkpt lat="43.55697" lon="6.90949">
        <ele>366.39999389648</ele>
        <time>2010-12-09T13:37:42.000Z</time>
      </trkpt>
      <trkpt lat="43.55679" lon="6.90929">
        <ele>367</ele>
        <time>2010-12-09T13:37:48.000Z</time>
      </trkpt>
      <trkpt lat="43.5567" lon="6.9091">
        <ele>368</ele>
        <time>2010-12-09T13:37:52.000Z</time>
      </trkpt>
      <trkpt lat="43.55657" lon="6.90901">
        <ele>365.20001220703</ele>
        <time>2010-12-09T13:37:56.000Z</time>
      </trkpt>
      <trkpt lat="43.55642" lon="6.90899">
        <ele>361.60000610352</ele>
        <time>2010-12-09T13:37:59.000Z</time>
      </trkpt>
      <trkpt lat="43.55627" lon="6.909">
        <ele>357.79998779297</ele>
        <time>2010-12-09T13:38:02.000Z</time>
      </trkpt>
      <trkpt lat="43.55612" lon="6.90915">
        <ele>353.20001220703</ele>
        <time>2010-12-09T13:38:07.000Z</time>
      </trkpt>
      <trkpt lat="43.55604" lon="6.90908">
        <ele>351.79998779297</ele>
        <time>2010-12-09T13:38:10.000Z</time>
      </trkpt>
      <trkpt lat="43.55602" lon="6.90889">
        <ele>352.39999389648</ele>
        <time>2010-12-09T13:38:13.000Z</time>
      </trkpt>
      <trkpt lat="43.55598" lon="6.90861">
        <ele>353.39999389648</ele>
        <time>2010-12-09T13:38:17.000Z</time>
      </trkpt>
      <trkpt lat="43.55587" lon="6.90838">
        <ele>352.39999389648</ele>
        <time>2010-12-09T13:38:21.000Z</time>
      </trkpt>
      <trkpt lat="43.55583" lon="6.90833">
        <ele>351.79998779297</ele>
        <time>2010-12-09T13:38:22.000Z</time>
      </trkpt>
      <trkpt lat="43.55564" lon="6.90804">
        <ele>345.60000610352</ele>
        <time>2010-12-09T13:38:26.000Z</time>
      </trkpt>
      <trkpt lat="43.55553" lon="6.90795">
        <ele>343.79998779297</ele>
        <time>2010-12-09T13:38:29.000Z</time>
      </trkpt>
      <trkpt lat="43.55548" lon="6.908">
        <ele>343.39999389648</ele>
        <time>2010-12-09T13:38:33.000Z</time>
      </trkpt>
      <trkpt lat="43.55547" lon="6.908">
        <ele>343.20001220703</ele>
        <time>2010-12-09T13:38:34.000Z</time>
      </trkpt>
      <trkpt lat="43.55574" lon="6.90822">
        <ele>348.60000610352</ele>
        <time>2010-12-09T13:45:34.000Z</time>
      </trkpt>
      <trkpt lat="43.55584" lon="6.90831">
        <ele>351.79998779297</ele>
        <time>2010-12-09T13:45:39.000Z</time>
      </trkpt>
      <trkpt lat="43.55597" lon="6.90826">
        <ele>353.79998779297</ele>
        <time>2010-12-09T13:45:45.000Z</time>
      </trkpt>
      <trkpt lat="43.55609" lon="6.90811">
        <ele>354.39999389648</ele>
        <time>2010-12-09T13:45:53.000Z</time>
      </trkpt>
      <trkpt lat="43.55619" lon="6.90799">
        <ele>354.79998779297</ele>
        <time>2010-12-09T13:46:01.000Z</time>
      </trkpt>
      <trkpt lat="43.55629" lon="6.90793">
        <ele>355.60000610352</ele>
        <time>2010-12-09T13:46:07.000Z</time>
      </trkpt>
      <trkpt lat="43.55639" lon="6.90781">
        <ele>355.60000610352</ele>
        <time>2010-12-09T13:46:14.000Z</time>
      </trkpt>
      <trkpt lat="43.55652" lon="6.90773">
        <ele>356.39999389648</ele>
        <time>2010-12-09T13:46:22.000Z</time>
      </trkpt>
      <trkpt lat="43.5566" lon="6.9077">
        <ele>357.60000610352</ele>
        <time>2010-12-09T13:46:28.000Z</time>
      </trkpt>
      <trkpt lat="43.55671" lon="6.90768">
        <ele>359</ele>
        <time>2010-12-09T13:46:34.000Z</time>
      </trkpt>
      <trkpt lat="43.55684" lon="6.90765">
        <ele>360.20001220703</ele>
        <time>2010-12-09T13:46:41.000Z</time>
      </trkpt>
      <trkpt lat="43.55698" lon="6.90764">
        <ele>361.60000610352</ele>
        <time>2010-12-09T13:46:48.000Z</time>
      </trkpt>
      <trkpt lat="43.55713" lon="6.90764">
        <ele>363.60000610352</ele>
        <time>2010-12-09T13:46:56.000Z</time>
      </trkpt>
      <trkpt lat="43.55727" lon="6.90765">
        <ele>365.39999389648</ele>
        <time>2010-12-09T13:47:03.000Z</time>
      </trkpt>
      <trkpt lat="43.55742" lon="6.90767">
        <ele>368</ele>
        <time>2010-12-09T13:47:11.000Z</time>
      </trkpt>
      <trkpt lat="43.55753" lon="6.90772">
        <ele>370.39999389648</ele>
        <time>2010-12-09T13:47:18.000Z</time>
      </trkpt>
      <trkpt lat="43.55761" lon="6.90777">
        <ele>371.60000610352</ele>
        <time>2010-12-09T13:47:24.000Z</time>
      </trkpt>
      <trkpt lat="43.55769" lon="6.9078">
        <ele>372.39999389648</ele>
        <time>2010-12-09T13:47:30.000Z</time>
      </trkpt>
      <trkpt lat="43.55782" lon="6.90786">
        <ele>374</ele>
        <time>2010-12-09T13:47:39.000Z</time>
      </trkpt>
      <trkpt lat="43.55791" lon="6.90787">
        <ele>374.60000610352</ele>
        <time>2010-12-09T13:47:46.000Z</time>
      </trkpt>
      <trkpt lat="43.55802" lon="6.90793">
        <ele>376</ele>
        <time>2010-12-09T13:47:54.000Z</time>
      </trkpt>
      <trkpt lat="43.55809" lon="6.90797">
        <ele>377.39999389648</ele>
        <time>2010-12-09T13:48:00.000Z</time>
      </trkpt>
      <trkpt lat="43.55819" lon="6.90802">
        <ele>378.60000610352</ele>
        <time>2010-12-09T13:48:07.000Z</time>
      </trkpt>
      <trkpt lat="43.55829" lon="6.90806">
        <ele>380</ele>
        <time>2010-12-09T13:48:15.000Z</time>
      </trkpt>
      <trkpt lat="43.5583" lon="6.90807">
        <ele>380.20001220703</ele>
        <time>2010-12-09T13:48:16.000Z</time>
      </trkpt>
      <trkpt lat="43.55835" lon="6.90816">
        <ele>382.39999389648</ele>
        <time>2010-12-09T13:48:22.000Z</time>
      </trkpt>
      <trkpt lat="43.55836" lon="6.9082">
        <ele>383.20001220703</ele>
        <time>2010-12-09T13:48:24.000Z</time>
      </trkpt>
      <trkpt lat="43.55836" lon="6.90827">
        <ele>385.39999389648</ele>
        <time>2010-12-09T13:48:28.000Z</time>
      </trkpt>
      <trkpt lat="43.55838" lon="6.9084">
        <ele>387.39999389648</ele>
        <time>2010-12-09T13:48:36.000Z</time>
      </trkpt>
      <trkpt lat="43.55843" lon="6.90853">
        <ele>388.79998779297</ele>
        <time>2010-12-09T13:48:43.000Z</time>
      </trkpt>
      <trkpt lat="43.55854" lon="6.90866">
        <ele>390.20001220703</ele>
        <time>2010-12-09T13:48:51.000Z</time>
      </trkpt>
      <trkpt lat="43.55866" lon="6.90865">
        <ele>390</ele>
        <time>2010-12-09T13:48:57.000Z</time>
      </trkpt>
      <trkpt lat="43.5588" lon="6.90868">
        <ele>390.39999389648</ele>
        <time>2010-12-09T13:49:04.000Z</time>
      </trkpt>
      <trkpt lat="43.55893" lon="6.90872">
        <ele>390.79998779297</ele>
        <time>2010-12-09T13:49:11.000Z</time>
      </trkpt>
      <trkpt lat="43.55905" lon="6.90879">
        <ele>392.20001220703</ele>
        <time>2010-12-09T13:49:18.000Z</time>
      </trkpt>
      <trkpt lat="43.55907" lon="6.90881">
        <ele>392.60000610352</ele>
        <time>2010-12-09T13:49:19.000Z</time>
      </trkpt>
      <trkpt lat="43.55917" lon="6.90896">
        <ele>395.60000610352</ele>
        <time>2010-12-09T13:49:27.000Z</time>
      </trkpt>
      <trkpt lat="43.55927" lon="6.90906">
        <ele>397.79998779297</ele>
        <time>2010-12-09T13:49:34.000Z</time>
      </trkpt>
      <trkpt lat="43.5594" lon="6.90919">
        <ele>400.79998779297</ele>
        <time>2010-12-09T13:49:43.000Z</time>
      </trkpt>
      <trkpt lat="43.55952" lon="6.90924">
        <ele>402.20001220703</ele>
        <time>2010-12-09T13:49:50.000Z</time>
      </trkpt>
      <trkpt lat="43.55964" lon="6.90929">
        <ele>403.79998779297</ele>
        <time>2010-12-09T13:49:57.000Z</time>
      </trkpt>
      <trkpt lat="43.55977" lon="6.90934">
        <ele>405.39999389648</ele>
        <time>2010-12-09T13:50:04.000Z</time>
      </trkpt>
      <trkpt lat="43.55996" lon="6.90937">
        <ele>407</ele>
        <time>2010-12-09T13:50:12.000Z</time>
      </trkpt>
      <trkpt lat="43.56019" lon="6.90939">
        <ele>406.39999389648</ele>
        <time>2010-12-09T13:50:19.000Z</time>
      </trkpt>
      <trkpt lat="43.56041" lon="6.90944">
        <ele>406.60000610352</ele>
        <time>2010-12-09T13:50:26.000Z</time>
      </trkpt>
      <trkpt lat="43.56064" lon="6.9095">
        <ele>407.39999389648</ele>
        <time>2010-12-09T13:50:33.000Z</time>
      </trkpt>
      <trkpt lat="43.56086" lon="6.90949">
        <ele>405.79998779297</ele>
        <time>2010-12-09T13:50:37.000Z</time>
      </trkpt>
      <trkpt lat="43.56104" lon="6.90954">
        <ele>406</ele>
        <time>2010-12-09T13:50:41.000Z</time>
      </trkpt>
      <trkpt lat="43.56123" lon="6.90966">
        <ele>408.20001220703</ele>
        <time>2010-12-09T13:50:48.000Z</time>
      </trkpt>
      <trkpt lat="43.56138" lon="6.90978">
        <ele>410.60000610352</ele>
        <time>2010-12-09T13:50:57.000Z</time>
      </trkpt>
      <trkpt lat="43.56149" lon="6.9099">
        <ele>413</ele>
        <time>2010-12-09T13:51:05.000Z</time>
      </trkpt>
      <trkpt lat="43.56158" lon="6.90997">
        <ele>414</ele>
        <time>2010-12-09T13:51:12.000Z</time>
      </trkpt>
      <trkpt lat="43.56169" lon="6.91003">
        <ele>415</ele>
        <time>2010-12-09T13:51:19.000Z</time>
      </trkpt>
      <trkpt lat="43.56181" lon="6.91007">
        <ele>417</ele>
        <time>2010-12-09T13:51:26.000Z</time>
      </trkpt>
      <trkpt lat="43.562" lon="6.91008">
        <ele>418.20001220703</ele>
        <time>2010-12-09T13:51:35.000Z</time>
      </trkpt>
      <trkpt lat="43.56216" lon="6.9101">
        <ele>419.39999389648</ele>
        <time>2010-12-09T13:51:42.000Z</time>
      </trkpt>
      <trkpt lat="43.56235" lon="6.91014">
        <ele>421.20001220703</ele>
        <time>2010-12-09T13:51:50.000Z</time>
      </trkpt>
      <trkpt lat="43.56252" lon="6.91019">
        <ele>422.79998779297</ele>
        <time>2010-12-09T13:51:57.000Z</time>
      </trkpt>
      <trkpt lat="43.56267" lon="6.91025">
        <ele>423.20001220703</ele>
        <time>2010-12-09T13:52:04.000Z</time>
      </trkpt>
      <trkpt lat="43.56277" lon="6.91026">
        <ele>422.60000610352</ele>
        <time>2010-12-09T13:52:09.000Z</time>
      </trkpt>
      <trkpt lat="43.56287" lon="6.91015">
        <ele>421.60000610352</ele>
        <time>2010-12-09T13:52:14.000Z</time>
      </trkpt>
      <trkpt lat="43.56301" lon="6.90991">
        <ele>421.79998779297</ele>
        <time>2010-12-09T13:52:22.000Z</time>
      </trkpt>
      <trkpt lat="43.56309" lon="6.90975">
        <ele>422.39999389648</ele>
        <time>2010-12-09T13:52:28.000Z</time>
      </trkpt>
      <trkpt lat="43.56318" lon="6.9096">
        <ele>423.79998779297</ele>
        <time>2010-12-09T13:52:35.000Z</time>
      </trkpt>
      <trkpt lat="43.56329" lon="6.9095">
        <ele>426</ele>
        <time>2010-12-09T13:52:42.000Z</time>
      </trkpt>
      <trkpt lat="43.5634" lon="6.90948">
        <ele>428</ele>
        <time>2010-12-09T13:52:48.000Z</time>
      </trkpt>
      <trkpt lat="43.56343" lon="6.90949">
        <ele>428.39999389648</ele>
        <time>2010-12-09T13:52:50.000Z</time>
      </trkpt>
      <trkpt lat="43.5635" lon="6.90946">
        <ele>429.60000610352</ele>
        <time>2010-12-09T13:52:55.000Z</time>
      </trkpt>
      <trkpt lat="43.5635" lon="6.90952">
        <ele>429.20001220703</ele>
        <time>2010-12-09T13:52:58.000Z</time>
      </trkpt>
      <trkpt lat="43.56348" lon="6.90954">
        <ele>428.60000610352</ele>
        <time>2010-12-09T13:53:00.000Z</time>
      </trkpt>
      <trkpt lat="43.56343" lon="6.90955">
        <ele>427.79998779297</ele>
        <time>2010-12-09T13:53:06.000Z</time>
      </trkpt>
      <trkpt lat="43.56344" lon="6.90956">
        <ele>427.79998779297</ele>
        <time>2010-12-09T13:53:10.000Z</time>
      </trkpt>
      <trkpt lat="43.56343" lon="6.90954">
        <ele>428</ele>
        <time>2010-12-09T13:53:24.000Z</time>
      </trkpt>
      <trkpt lat="43.56343" lon="6.90953">
        <ele>428</ele>
        <time>2010-12-09T13:53:44.000Z</time>
      </trkpt>
      <trkpt lat="43.56342" lon="6.90954">
        <ele>427.79998779297</ele>
        <time>2010-12-09T13:53:55.000Z</time>
      </trkpt>
      <trkpt lat="43.5634" lon="6.90954">
        <ele>427.60000610352</ele>
        <time>2010-12-09T13:54:04.000Z</time>
      </trkpt>
      <trkpt lat="43.56339" lon="6.90957">
        <ele>427.20001220703</ele>
        <time>2010-12-09T13:54:09.000Z</time>
      </trkpt>
      <trkpt lat="43.56333" lon="6.90967">
        <ele>425.79998779297</ele>
        <time>2010-12-09T13:54:13.000Z</time>
      </trkpt>
      <trkpt lat="43.56314" lon="6.90989">
        <ele>422.79998779297</ele>
        <time>2010-12-09T13:54:19.000Z</time>
      </trkpt>
      <trkpt lat="43.56301" lon="6.91014">
        <ele>421.60000610352</ele>
        <time>2010-12-09T13:54:23.000Z</time>
      </trkpt>
      <trkpt lat="43.5629" lon="6.91066">
        <ele>422.79998779297</ele>
        <time>2010-12-09T13:54:29.000Z</time>
      </trkpt>
      <trkpt lat="43.56282" lon="6.91123">
        <ele>427.39999389648</ele>
        <time>2010-12-09T13:54:35.000Z</time>
      </trkpt>
      <trkpt lat="43.56282" lon="6.9116">
        <ele>428.79998779297</ele>
        <time>2010-12-09T13:54:39.000Z</time>
      </trkpt>
      <trkpt lat="43.56287" lon="6.91195">
        <ele>425</ele>
        <time>2010-12-09T13:54:43.000Z</time>
      </trkpt>
      <trkpt lat="43.56282" lon="6.9123">
        <ele>426.39999389648</ele>
        <time>2010-12-09T13:54:47.000Z</time>
      </trkpt>
      <trkpt lat="43.56271" lon="6.91251">
        <ele>432.20001220703</ele>
        <time>2010-12-09T13:54:50.000Z</time>
      </trkpt>
      <trkpt lat="43.56262" lon="6.91264">
        <ele>436.39999389648</ele>
        <time>2010-12-09T13:54:52.000Z</time>
      </trkpt>
      <trkpt lat="43.56252" lon="6.91294">
        <ele>439.39999389648</ele>
        <time>2010-12-09T13:54:56.000Z</time>
      </trkpt>
      <trkpt lat="43.56255" lon="6.91318">
        <ele>435.79998779297</ele>
        <time>2010-12-09T13:54:59.000Z</time>
      </trkpt>
      <trkpt lat="43.56265" lon="6.91341">
        <ele>430.60000610352</ele>
        <time>2010-12-09T13:55:02.000Z</time>
      </trkpt>
      <trkpt lat="43.56288" lon="6.91383">
        <ele>423.60000610352</ele>
        <time>2010-12-09T13:55:08.000Z</time>
      </trkpt>
      <trkpt lat="43.56313" lon="6.9142">
        <ele>418.60000610352</ele>
        <time>2010-12-09T13:55:13.000Z</time>
      </trkpt>
      <trkpt lat="43.56314" lon="6.91455">
        <ele>417.20001220703</ele>
        <time>2010-12-09T13:55:16.000Z</time>
      </trkpt>
      <trkpt lat="43.5631" lon="6.91467">
        <ele>417.60000610352</ele>
        <time>2010-12-09T13:55:17.000Z</time>
      </trkpt>
      <trkpt lat="43.56295" lon="6.91512">
        <ele>417</ele>
        <time>2010-12-09T13:55:21.000Z</time>
      </trkpt>
      <trkpt lat="43.56282" lon="6.91527">
        <ele>416.60000610352</ele>
        <time>2010-12-09T13:55:25.000Z</time>
      </trkpt>
      <trkpt lat="43.5628" lon="6.91529">
        <ele>416.39999389648</ele>
        <time>2010-12-09T13:55:28.000Z</time>
      </trkpt>
      <trkpt lat="43.5628" lon="6.91528">
        <ele>416.60000610352</ele>
        <time>2010-12-09T13:55:33.000Z</time>
      </trkpt>
      <trkpt lat="43.56277" lon="6.91532">
        <ele>416.39999389648</ele>
        <time>2010-12-09T13:55:49.000Z</time>
      </trkpt>
      <trkpt lat="43.56272" lon="6.91535">
        <ele>416.39999389648</ele>
        <time>2010-12-09T13:55:55.000Z</time>
      </trkpt>
      <trkpt lat="43.56259" lon="6.91545">
        <ele>416</ele>
        <time>2010-12-09T13:56:00.000Z</time>
      </trkpt>
      <trkpt lat="43.56241" lon="6.91554">
        <ele>413.39999389648</ele>
        <time>2010-12-09T13:56:05.000Z</time>
      </trkpt>
      <trkpt lat="43.56222" lon="6.91562">
        <ele>408</ele>
        <time>2010-12-09T13:56:10.000Z</time>
      </trkpt>
      <trkpt lat="43.5621" lon="6.91568">
        <ele>404.39999389648</ele>
        <time>2010-12-09T13:56:13.000Z</time>
      </trkpt>
      <trkpt lat="43.56197" lon="6.91571">
        <ele>400.79998779297</ele>
        <time>2010-12-09T13:56:16.000Z</time>
      </trkpt>
      <trkpt lat="43.56185" lon="6.91572">
        <ele>397.79998779297</ele>
        <time>2010-12-09T13:56:19.000Z</time>
      </trkpt>
      <trkpt lat="43.56171" lon="6.91554">
        <ele>399.39999389648</ele>
        <time>2010-12-09T13:56:23.000Z</time>
      </trkpt>
      <trkpt lat="43.56167" lon="6.91548">
        <ele>400.20001220703</ele>
        <time>2010-12-09T13:56:24.000Z</time>
      </trkpt>
      <trkpt lat="43.56153" lon="6.91535">
        <ele>402.60000610352</ele>
        <time>2010-12-09T13:56:28.000Z</time>
      </trkpt>
      <trkpt lat="43.56135" lon="6.91531">
        <ele>402.60000610352</ele>
        <time>2010-12-09T13:56:32.000Z</time>
      </trkpt>
      <trkpt lat="43.56118" lon="6.91529">
        <ele>401.79998779297</ele>
        <time>2010-12-09T13:56:35.000Z</time>
      </trkpt>
      <trkpt lat="43.56108" lon="6.91531">
        <ele>400.60000610352</ele>
        <time>2010-12-09T13:56:37.000Z</time>
      </trkpt>
      <trkpt lat="43.56098" lon="6.91533">
        <ele>399.39999389648</ele>
        <time>2010-12-09T13:56:39.000Z</time>
      </trkpt>
      <trkpt lat="43.56075" lon="6.9155">
        <ele>392.79998779297</ele>
        <time>2010-12-09T13:56:44.000Z</time>
      </trkpt>
      <trkpt lat="43.56062" lon="6.91562">
        <ele>388.39999389648</ele>
        <time>2010-12-09T13:56:47.000Z</time>
      </trkpt>
      <trkpt lat="43.56042" lon="6.91577">
        <ele>382.79998779297</ele>
        <time>2010-12-09T13:56:53.000Z</time>
      </trkpt>
      <trkpt lat="43.56025" lon="6.91574">
        <ele>382</ele>
        <time>2010-12-09T13:56:57.000Z</time>
      </trkpt>
      <trkpt lat="43.56012" lon="6.91566">
        <ele>382.39999389648</ele>
        <time>2010-12-09T13:57:00.000Z</time>
      </trkpt>
      <trkpt lat="43.55994" lon="6.91551">
        <ele>383</ele>
        <time>2010-12-09T13:57:05.000Z</time>
      </trkpt>
      <trkpt lat="43.55976" lon="6.91544">
        <ele>380.39999389648</ele>
        <time>2010-12-09T13:57:09.000Z</time>
      </trkpt>
      <trkpt lat="43.55958" lon="6.91529">
        <ele>379</ele>
        <time>2010-12-09T13:57:13.000Z</time>
      </trkpt>
      <trkpt lat="43.55954" lon="6.91524">
        <ele>378.79998779297</ele>
        <time>2010-12-09T13:57:14.000Z</time>
      </trkpt>
      <trkpt lat="43.55934" lon="6.91508">
        <ele>376.20001220703</ele>
        <time>2010-12-09T13:57:19.000Z</time>
      </trkpt>
      <trkpt lat="43.55912" lon="6.91507">
        <ele>371</ele>
        <time>2010-12-09T13:57:25.000Z</time>
      </trkpt>
      <trkpt lat="43.55908" lon="6.91502">
        <ele>370</ele>
        <time>2010-12-09T13:57:29.000Z</time>
      </trkpt>
      <trkpt lat="43.55894" lon="6.91511">
        <ele>365.20001220703</ele>
        <time>2010-12-09T13:57:33.000Z</time>
      </trkpt>
      <trkpt lat="43.55888" lon="6.91519">
        <ele>363.39999389648</ele>
        <time>2010-12-09T13:57:36.000Z</time>
      </trkpt>
      <trkpt lat="43.55883" lon="6.9153">
        <ele>361.39999389648</ele>
        <time>2010-12-09T13:57:39.000Z</time>
      </trkpt>
      <trkpt lat="43.55876" lon="6.91538">
        <ele>359.39999389648</ele>
        <time>2010-12-09T13:57:42.000Z</time>
      </trkpt>
      <trkpt lat="43.55865" lon="6.91552">
        <ele>356.79998779297</ele>
        <time>2010-12-09T13:57:46.000Z</time>
      </trkpt>
      <trkpt lat="43.55856" lon="6.91549">
        <ele>355</ele>
        <time>2010-12-09T13:57:49.000Z</time>
      </trkpt>
      <trkpt lat="43.55849" lon="6.91554">
        <ele>353.60000610352</ele>
        <time>2010-12-09T13:57:52.000Z</time>
      </trkpt>
      <trkpt lat="43.55839" lon="6.91559">
        <ele>351.79998779297</ele>
        <time>2010-12-09T13:57:55.000Z</time>
      </trkpt>
      <trkpt lat="43.55836" lon="6.91551">
        <ele>351</ele>
        <time>2010-12-09T13:57:58.000Z</time>
      </trkpt>
      <trkpt lat="43.55832" lon="6.91546">
        <ele>349.79998779297</ele>
        <time>2010-12-09T13:58:01.000Z</time>
      </trkpt>
      <trkpt lat="43.55825" lon="6.91551">
        <ele>348.20001220703</ele>
        <time>2010-12-09T13:58:04.000Z</time>
      </trkpt>
      <trkpt lat="43.55814" lon="6.91568">
        <ele>346.60000610352</ele>
        <time>2010-12-09T13:58:08.000Z</time>
      </trkpt>
      <trkpt lat="43.55808" lon="6.91578">
        <ele>345.79998779297</ele>
        <time>2010-12-09T13:58:11.000Z</time>
      </trkpt>
      <trkpt lat="43.55795" lon="6.91589">
        <ele>342.20001220703</ele>
        <time>2010-12-09T13:58:16.000Z</time>
      </trkpt>
      <trkpt lat="43.5578" lon="6.91596">
        <ele>338.20001220703</ele>
        <time>2010-12-09T13:58:20.000Z</time>
      </trkpt>
      <trkpt lat="43.55776" lon="6.91604">
        <ele>336.39999389648</ele>
        <time>2010-12-09T13:58:23.000Z</time>
      </trkpt>
      <trkpt lat="43.55775" lon="6.91616">
        <ele>334.60000610352</ele>
        <time>2010-12-09T13:58:25.000Z</time>
      </trkpt>
      <trkpt lat="43.55772" lon="6.91638">
        <ele>331.60000610352</ele>
        <time>2010-12-09T13:58:28.000Z</time>
      </trkpt>
      <trkpt lat="43.5576" lon="6.91655">
        <ele>328.60000610352</ele>
        <time>2010-12-09T13:58:31.000Z</time>
      </trkpt>
      <trkpt lat="43.5575" lon="6.91687">
        <ele>324</ele>
        <time>2010-12-09T13:58:36.000Z</time>
      </trkpt>
      <trkpt lat="43.55745" lon="6.91705">
        <ele>320.79998779297</ele>
        <time>2010-12-09T13:58:39.000Z</time>
      </trkpt>
      <trkpt lat="43.55728" lon="6.9172">
        <ele>317.79998779297</ele>
        <time>2010-12-09T13:58:42.000Z</time>
      </trkpt>
      <trkpt lat="43.55722" lon="6.91724">
        <ele>317.20001220703</ele>
        <time>2010-12-09T13:58:43.000Z</time>
      </trkpt>
      <trkpt lat="43.55701" lon="6.91732">
        <ele>316.20001220703</ele>
        <time>2010-12-09T13:58:46.000Z</time>
      </trkpt>
      <trkpt lat="43.55674" lon="6.91743">
        <ele>316.79998779297</ele>
        <time>2010-12-09T13:58:50.000Z</time>
      </trkpt>
      <trkpt lat="43.55652" lon="6.91742">
        <ele>314.39999389648</ele>
        <time>2010-12-09T13:58:54.000Z</time>
      </trkpt>
      <trkpt lat="43.55641" lon="6.91738">
        <ele>312.20001220703</ele>
        <time>2010-12-09T13:58:56.000Z</time>
      </trkpt>
      <trkpt lat="43.55623" lon="6.91731">
        <ele>308.20001220703</ele>
        <time>2010-12-09T13:59:00.000Z</time>
      </trkpt>
      <trkpt lat="43.55617" lon="6.91726">
        <ele>306.39999389648</ele>
        <time>2010-12-09T13:59:02.000Z</time>
      </trkpt>
      <trkpt lat="43.55605" lon="6.91727">
        <ele>304.60000610352</ele>
        <time>2010-12-09T13:59:06.000Z</time>
      </trkpt>
      <trkpt lat="43.55581" lon="6.91736">
        <ele>302.20001220703</ele>
        <time>2010-12-09T13:59:13.000Z</time>
      </trkpt>
      <trkpt lat="43.55575" lon="6.91744">
        <ele>301.79998779297</ele>
        <time>2010-12-09T13:59:16.000Z</time>
      </trkpt>
      <trkpt lat="43.55573" lon="6.91747">
        <ele>301.79998779297</ele>
        <time>2010-12-09T13:59:22.000Z</time>
      </trkpt>
      <trkpt lat="43.55576" lon="6.91748">
        <ele>302.79998779297</ele>
        <time>2010-12-09T13:59:30.000Z</time>
      </trkpt>
      <trkpt lat="43.55579" lon="6.91749">
        <ele>303.60000610352</ele>
        <time>2010-12-09T13:59:32.000Z</time>
      </trkpt>
      <trkpt lat="43.55584" lon="6.91753">
        <ele>304.79998779297</ele>
        <time>2010-12-09T13:59:38.000Z</time>
      </trkpt>
      <trkpt lat="43.55587" lon="6.91757">
        <ele>305.20001220703</ele>
        <time>2010-12-09T13:59:43.000Z</time>
      </trkpt>
      <trkpt lat="43.55585" lon="6.91757">
        <ele>305</ele>
        <time>2010-12-09T13:59:45.000Z</time>
      </trkpt>
      <trkpt lat="43.55581" lon="6.91755">
        <ele>304</ele>
        <time>2010-12-09T13:59:48.000Z</time>
      </trkpt>
      <trkpt lat="43.55577" lon="6.9175">
        <ele>303.39999389648</ele>
        <time>2010-12-09T13:59:53.000Z</time>
      </trkpt>
      <trkpt lat="43.55575" lon="6.91749">
        <ele>302.79998779297</ele>
        <time>2010-12-09T13:59:55.000Z</time>
      </trkpt>
      <trkpt lat="43.55574" lon="6.91745">
        <ele>301.79998779297</ele>
        <time>2010-12-09T14:00:01.000Z</time>
      </trkpt>
      <trkpt lat="43.55575" lon="6.91743">
        <ele>301.79998779297</ele>
        <time>2010-12-09T14:00:04.000Z</time>
      </trkpt>
      <trkpt lat="43.55583" lon="6.91735">
        <ele>302.20001220703</ele>
        <time>2010-12-09T14:00:12.000Z</time>
      </trkpt>
      <trkpt lat="43.5559" lon="6.91732">
        <ele>302.79998779297</ele>
        <time>2010-12-09T14:00:19.000Z</time>
      </trkpt>
      <trkpt lat="43.55598" lon="6.91729">
        <ele>303.60000610352</ele>
        <time>2010-12-09T14:00:26.000Z</time>
      </trkpt>
      <trkpt lat="43.55607" lon="6.91726">
        <ele>304.79998779297</ele>
        <time>2010-12-09T14:00:35.000Z</time>
      </trkpt>
      <trkpt lat="43.55614" lon="6.91724">
        <ele>305.39999389648</ele>
        <time>2010-12-09T14:00:42.000Z</time>
      </trkpt>
      <trkpt lat="43.55622" lon="6.91726">
        <ele>307.20001220703</ele>
        <time>2010-12-09T14:00:50.000Z</time>
      </trkpt>
      <trkpt lat="43.55623" lon="6.91729">
        <ele>307.79998779297</ele>
        <time>2010-12-09T14:00:54.000Z</time>
      </trkpt>
      <trkpt lat="43.55617" lon="6.91734">
        <ele>307.60000610352</ele>
        <time>2010-12-09T14:01:03.000Z</time>
      </trkpt>
      <trkpt lat="43.55616" lon="6.91734">
        <ele>307.60000610352</ele>
        <time>2010-12-09T14:01:12.000Z</time>
      </trkpt>
      <trkpt lat="43.55609" lon="6.91742">
        <ele>307.39999389648</ele>
        <time>2010-12-09T14:01:16.000Z</time>
      </trkpt>
      <trkpt lat="43.55588" lon="6.9176">
        <ele>305.39999389648</ele>
        <time>2010-12-09T14:01:22.000Z</time>
      </trkpt>
      <trkpt lat="43.55579" lon="6.91774">
        <ele>303.20001220703</ele>
        <time>2010-12-09T14:01:25.000Z</time>
      </trkpt>
      <trkpt lat="43.55571" lon="6.918">
        <ele>301.20001220703</ele>
        <time>2010-12-09T14:01:29.000Z</time>
      </trkpt>
      <trkpt lat="43.55557" lon="6.91813">
        <ele>298.39999389648</ele>
        <time>2010-12-09T14:01:33.000Z</time>
      </trkpt>
      <trkpt lat="43.55546" lon="6.91821">
        <ele>296.60000610352</ele>
        <time>2010-12-09T14:01:38.000Z</time>
      </trkpt>
      <trkpt lat="43.55548" lon="6.91826">
        <ele>296.79998779297</ele>
        <time>2010-12-09T14:01:42.000Z</time>
      </trkpt>
      <trkpt lat="43.55548" lon="6.91828">
        <ele>297</ele>
        <time>2010-12-09T14:01:46.000Z</time>
      </trkpt>
      <trkpt lat="43.55543" lon="6.91848">
        <ele>294.39999389648</ele>
        <time>2010-12-09T14:01:51.000Z</time>
      </trkpt>
      <trkpt lat="43.55541" lon="6.91852">
        <ele>293.60000610352</ele>
        <time>2010-12-09T14:01:52.000Z</time>
      </trkpt>
      <trkpt lat="43.55523" lon="6.91854">
        <ele>291</ele>
        <time>2010-12-09T14:01:57.000Z</time>
      </trkpt>
      <trkpt lat="43.55518" lon="6.91855">
        <ele>290.20001220703</ele>
        <time>2010-12-09T14:02:00.000Z</time>
      </trkpt>
      <trkpt lat="43.55516" lon="6.9186">
        <ele>289.60000610352</ele>
        <time>2010-12-09T14:02:02.000Z</time>
      </trkpt>
      <trkpt lat="43.55508" lon="6.91881">
        <ele>287.39999389648</ele>
        <time>2010-12-09T14:02:08.000Z</time>
      </trkpt>
      <trkpt lat="43.55496" lon="6.91909">
        <ele>286</ele>
        <time>2010-12-09T14:02:14.000Z</time>
      </trkpt>
      <trkpt lat="43.55487" lon="6.91924">
        <ele>286.60000610352</ele>
        <time>2010-12-09T14:02:18.000Z</time>
      </trkpt>
      <trkpt lat="43.55487" lon="6.9193">
        <ele>286.20001220703</ele>
        <time>2010-12-09T14:02:20.000Z</time>
      </trkpt>
      <trkpt lat="43.55487" lon="6.91933">
        <ele>285.60000610352</ele>
        <time>2010-12-09T14:02:24.000Z</time>
      </trkpt>
      <trkpt lat="43.55486" lon="6.91945">
        <ele>284.79998779297</ele>
        <time>2010-12-09T14:02:29.000Z</time>
      </trkpt>
      <trkpt lat="43.55488" lon="6.91956">
        <ele>283</ele>
        <time>2010-12-09T14:02:32.000Z</time>
      </trkpt>
      <trkpt lat="43.5549" lon="6.91978">
        <ele>280.20001220703</ele>
        <time>2010-12-09T14:02:37.000Z</time>
      </trkpt>
      <trkpt lat="43.55491" lon="6.91981">
        <ele>279.79998779297</ele>
        <time>2010-12-09T14:02:38.000Z</time>
      </trkpt>
      <trkpt lat="43.55498" lon="6.92003">
        <ele>275</ele>
        <time>2010-12-09T14:02:42.000Z</time>
      </trkpt>
      <trkpt lat="43.55497" lon="6.92028">
        <ele>271</ele>
        <time>2010-12-09T14:02:45.000Z</time>
      </trkpt>
      <trkpt lat="43.55499" lon="6.92047">
        <ele>267.39999389648</ele>
        <time>2010-12-09T14:02:47.000Z</time>
      </trkpt>
      <trkpt lat="43.55498" lon="6.92064">
        <ele>264.79998779297</ele>
        <time>2010-12-09T14:02:49.000Z</time>
      </trkpt>
      <trkpt lat="43.55496" lon="6.92074">
        <ele>263.60000610352</ele>
        <time>2010-12-09T14:02:51.000Z</time>
      </trkpt>
      <trkpt lat="43.555" lon="6.92093">
        <ele>259.60000610352</ele>
        <time>2010-12-09T14:02:55.000Z</time>
      </trkpt>
      <trkpt lat="43.555" lon="6.92099">
        <ele>258.39999389648</ele>
        <time>2010-12-09T14:02:56.000Z</time>
      </trkpt>
      <trkpt lat="43.55502" lon="6.92113">
        <ele>256</ele>
        <time>2010-12-09T14:02:58.000Z</time>
      </trkpt>
      <trkpt lat="43.55501" lon="6.92133">
        <ele>253</ele>
        <time>2010-12-09T14:03:03.000Z</time>
      </trkpt>
      <trkpt lat="43.555" lon="6.92137">
        <ele>252.39999389648</ele>
        <time>2010-12-09T14:03:04.000Z</time>
      </trkpt>
      <trkpt lat="43.55507" lon="6.92138">
        <ele>250.80000305176</ele>
        <time>2010-12-09T14:03:08.000Z</time>
      </trkpt>
      <trkpt lat="43.5552" lon="6.92127">
        <ele>249.19999694824</ele>
        <time>2010-12-09T14:03:12.000Z</time>
      </trkpt>
      <trkpt lat="43.5553" lon="6.92111">
        <ele>249.19999694824</ele>
        <time>2010-12-09T14:03:16.000Z</time>
      </trkpt>
      <trkpt lat="43.55537" lon="6.92085">
        <ele>251</ele>
        <time>2010-12-09T14:03:21.000Z</time>
      </trkpt>
      <trkpt lat="43.5554" lon="6.92072">
        <ele>252.60000610352</ele>
        <time>2010-12-09T14:03:23.000Z</time>
      </trkpt>
      <trkpt lat="43.55554" lon="6.9205">
        <ele>253.80000305176</ele>
        <time>2010-12-09T14:03:27.000Z</time>
      </trkpt>
      <trkpt lat="43.55559" lon="6.92046">
        <ele>253.39999389648</ele>
        <time>2010-12-09T14:03:28.000Z</time>
      </trkpt>
      <trkpt lat="43.55573" lon="6.92039">
        <ele>252</ele>
        <time>2010-12-09T14:03:32.000Z</time>
      </trkpt>
      <trkpt lat="43.55586" lon="6.92044">
        <ele>248.39999389648</ele>
        <time>2010-12-09T14:03:37.000Z</time>
      </trkpt>
      <trkpt lat="43.55596" lon="6.92042">
        <ele>249</ele>
        <time>2010-12-09T14:03:40.000Z</time>
      </trkpt>
      <trkpt lat="43.55602" lon="6.92041">
        <ele>249.19999694824</ele>
        <time>2010-12-09T14:03:44.000Z</time>
      </trkpt>
      <trkpt lat="43.55603" lon="6.92044">
        <ele>248.60000610352</ele>
        <time>2010-12-09T14:03:50.000Z</time>
      </trkpt>
      <trkpt lat="43.55599" lon="6.92048">
        <ele>247.80000305176</ele>
        <time>2010-12-09T14:03:54.000Z</time>
      </trkpt>
      <trkpt lat="43.55598" lon="6.92053">
        <ele>246.39999389648</ele>
        <time>2010-12-09T14:03:59.000Z</time>
      </trkpt>
      <trkpt lat="43.55606" lon="6.92056">
        <ele>246</ele>
        <time>2010-12-09T14:04:03.000Z</time>
      </trkpt>
      <trkpt lat="43.55633" lon="6.92061">
        <ele>245.80000305176</ele>
        <time>2010-12-09T14:04:10.000Z</time>
      </trkpt>
      <trkpt lat="43.55641" lon="6.92066">
        <ele>244.80000305176</ele>
        <time>2010-12-09T14:04:12.000Z</time>
      </trkpt>
      <trkpt lat="43.55639" lon="6.92085">
        <ele>241.39999389648</ele>
        <time>2010-12-09T14:04:16.000Z</time>
      </trkpt>
      <trkpt lat="43.55621" lon="6.92097">
        <ele>239.60000610352</ele>
        <time>2010-12-09T14:04:21.000Z</time>
      </trkpt>
      <trkpt lat="43.55618" lon="6.92101">
        <ele>239.19999694824</ele>
        <time>2010-12-09T14:04:22.000Z</time>
      </trkpt>
      <trkpt lat="43.55611" lon="6.92113">
        <ele>237.80000305176</ele>
        <time>2010-12-09T14:04:27.000Z</time>
      </trkpt>
      <trkpt lat="43.5561" lon="6.92115">
        <ele>237.60000610352</ele>
        <time>2010-12-09T14:04:28.000Z</time>
      </trkpt>
      <trkpt lat="43.55611" lon="6.92126">
        <ele>236.60000610352</ele>
        <time>2010-12-09T14:04:33.000Z</time>
      </trkpt>
      <trkpt lat="43.55617" lon="6.92154">
        <ele>235</ele>
        <time>2010-12-09T14:04:39.000Z</time>
      </trkpt>
      <trkpt lat="43.55625" lon="6.92179">
        <ele>233.60000610352</ele>
        <time>2010-12-09T14:04:43.000Z</time>
      </trkpt>
      <trkpt lat="43.55631" lon="6.92193">
        <ele>232.60000610352</ele>
        <time>2010-12-09T14:04:45.000Z</time>
      </trkpt>
      <trkpt lat="43.55646" lon="6.92217">
        <ele>231.39999389648</ele>
        <time>2010-12-09T14:04:49.000Z</time>
      </trkpt>
      <trkpt lat="43.55651" lon="6.92233">
        <ele>230</ele>
        <time>2010-12-09T14:04:52.000Z</time>
      </trkpt>
      <trkpt lat="43.55664" lon="6.92271">
        <ele>223.60000610352</ele>
        <time>2010-12-09T14:04:58.000Z</time>
      </trkpt>
      <trkpt lat="43.55666" lon="6.92294">
        <ele>218.19999694824</ele>
        <time>2010-12-09T14:05:03.000Z</time>
      </trkpt>
      <trkpt lat="43.55655" lon="6.92308">
        <ele>214.60000610352</ele>
        <time>2010-12-09T14:05:06.000Z</time>
      </trkpt>
      <trkpt lat="43.55634" lon="6.92321">
        <ele>211.19999694824</ele>
        <time>2010-12-09T14:05:11.000Z</time>
      </trkpt>
      <trkpt lat="43.55633" lon="6.92306">
        <ele>214.39999389648</ele>
        <time>2010-12-09T14:05:14.000Z</time>
      </trkpt>
      <trkpt lat="43.55632" lon="6.923">
        <ele>215.60000610352</ele>
        <time>2010-12-09T14:05:15.000Z</time>
      </trkpt>
      <trkpt lat="43.5563" lon="6.92286">
        <ele>218.60000610352</ele>
        <time>2010-12-09T14:05:17.000Z</time>
      </trkpt>
      <trkpt lat="43.55619" lon="6.92264">
        <ele>222.60000610352</ele>
        <time>2010-12-09T14:05:21.000Z</time>
      </trkpt>
      <trkpt lat="43.55606" lon="6.92271">
        <ele>220.39999389648</ele>
        <time>2010-12-09T14:05:24.000Z</time>
      </trkpt>
      <trkpt lat="43.55602" lon="6.92276">
        <ele>219.19999694824</ele>
        <time>2010-12-09T14:05:25.000Z</time>
      </trkpt>
      <trkpt lat="43.55582" lon="6.92303">
        <ele>213.39999389648</ele>
        <time>2010-12-09T14:05:30.000Z</time>
      </trkpt>
      <trkpt lat="43.55571" lon="6.92318">
        <ele>211</ele>
        <time>2010-12-09T14:05:33.000Z</time>
      </trkpt>
      <trkpt lat="43.5556" lon="6.92339">
        <ele>206.19999694824</ele>
        <time>2010-12-09T14:05:37.000Z</time>
      </trkpt>
      <trkpt lat="43.5555" lon="6.92362">
        <ele>198.60000610352</ele>
        <time>2010-12-09T14:05:43.000Z</time>
      </trkpt>
      <trkpt lat="43.55538" lon="6.9237">
        <ele>195.60000610352</ele>
        <time>2010-12-09T14:05:46.000Z</time>
      </trkpt>
      <trkpt lat="43.55519" lon="6.92368">
        <ele>196.39999389648</ele>
        <time>2010-12-09T14:05:51.000Z</time>
      </trkpt>
      <trkpt lat="43.55509" lon="6.92366">
        <ele>197.19999694824</ele>
        <time>2010-12-09T14:05:53.000Z</time>
      </trkpt>
      <trkpt lat="43.5549" lon="6.92369">
        <ele>197</ele>
        <time>2010-12-09T14:05:57.000Z</time>
      </trkpt>
      <trkpt lat="43.55478" lon="6.92367">
        <ele>199.39999389648</ele>
        <time>2010-12-09T14:06:01.000Z</time>
      </trkpt>
      <trkpt lat="43.55457" lon="6.92371">
        <ele>200.39999389648</ele>
        <time>2010-12-09T14:06:06.000Z</time>
      </trkpt>
      <trkpt lat="43.55449" lon="6.92379">
        <ele>198.80000305176</ele>
        <time>2010-12-09T14:06:08.000Z</time>
      </trkpt>
      <trkpt lat="43.55441" lon="6.92394">
        <ele>194.80000305176</ele>
        <time>2010-12-09T14:06:12.000Z</time>
      </trkpt>
      <trkpt lat="43.5544" lon="6.92398">
        <ele>193.60000610352</ele>
        <time>2010-12-09T14:06:16.000Z</time>
      </trkpt>
      <trkpt lat="43.55439" lon="6.92401">
        <ele>193</ele>
        <time>2010-12-09T14:06:29.000Z</time>
      </trkpt>
      <trkpt lat="43.55432" lon="6.92413">
        <ele>189.80000305176</ele>
        <time>2010-12-09T14:06:33.000Z</time>
      </trkpt>
      <trkpt lat="43.55416" lon="6.92436">
        <ele>185.19999694824</ele>
        <time>2010-12-09T14:06:39.000Z</time>
      </trkpt>
      <trkpt lat="43.55406" lon="6.92452">
        <ele>182.19999694824</ele>
        <time>2010-12-09T14:06:42.000Z</time>
      </trkpt>
      <trkpt lat="43.55401" lon="6.92464">
        <ele>179.60000610352</ele>
        <time>2010-12-09T14:06:44.000Z</time>
      </trkpt>
      <trkpt lat="43.55392" lon="6.92482">
        <ele>176.80000305176</ele>
        <time>2010-12-09T14:06:47.000Z</time>
      </trkpt>
      <trkpt lat="43.55386" lon="6.92494">
        <ele>174.80000305176</ele>
        <time>2010-12-09T14:06:49.000Z</time>
      </trkpt>
      <trkpt lat="43.5538" lon="6.92522">
        <ele>168.60000610352</ele>
        <time>2010-12-09T14:06:53.000Z</time>
      </trkpt>
      <trkpt lat="43.55373" lon="6.92544">
        <ele>164.39999389648</ele>
        <time>2010-12-09T14:06:57.000Z</time>
      </trkpt>
      <trkpt lat="43.55362" lon="6.92553">
        <ele>164.60000610352</ele>
        <time>2010-12-09T14:07:01.000Z</time>
      </trkpt>
      <trkpt lat="43.55355" lon="6.92557">
        <ele>165.60000610352</ele>
        <time>2010-12-09T14:07:04.000Z</time>
      </trkpt>
      <trkpt lat="43.55354" lon="6.92559">
        <ele>165.60000610352</ele>
        <time>2010-12-09T14:07:07.000Z</time>
      </trkpt>
      <trkpt lat="43.55347" lon="6.9257">
        <ele>164.39999389648</ele>
        <time>2010-12-09T14:07:13.000Z</time>
      </trkpt>
      <trkpt lat="43.55341" lon="6.92576">
        <ele>164.39999389648</ele>
        <time>2010-12-09T14:07:16.000Z</time>
      </trkpt>
      <trkpt lat="43.55331" lon="6.92586">
        <ele>164.19999694824</ele>
        <time>2010-12-09T14:07:20.000Z</time>
      </trkpt>
      <trkpt lat="43.55321" lon="6.9259">
        <ele>162.80000305176</ele>
        <time>2010-12-09T14:07:24.000Z</time>
      </trkpt>
      <trkpt lat="43.55319" lon="6.92591">
        <ele>162.60000610352</ele>
        <time>2010-12-09T14:07:25.000Z</time>
      </trkpt>
      <trkpt lat="43.55319" lon="6.92598">
        <ele>161</ele>
        <time>2010-12-09T14:07:29.000Z</time>
      </trkpt>
      <trkpt lat="43.5533" lon="6.926">
        <ele>160.80000305176</ele>
        <time>2010-12-09T14:07:33.000Z</time>
      </trkpt>
      <trkpt lat="43.55331" lon="6.92606">
        <ele>159.39999389648</ele>
        <time>2010-12-09T14:07:36.000Z</time>
      </trkpt>
      <trkpt lat="43.55334" lon="6.92614">
        <ele>157.19999694824</ele>
        <time>2010-12-09T14:07:39.000Z</time>
      </trkpt>
      <trkpt lat="43.55335" lon="6.92625">
        <ele>154.60000610352</ele>
        <time>2010-12-09T14:07:43.000Z</time>
      </trkpt>
      <trkpt lat="43.55332" lon="6.92627">
        <ele>154.39999389648</ele>
        <time>2010-12-09T14:07:44.000Z</time>
      </trkpt>
      <trkpt lat="43.5532" lon="6.92635">
        <ele>152.39999389648</ele>
        <time>2010-12-09T14:07:49.000Z</time>
      </trkpt>
      <trkpt lat="43.55322" lon="6.92644">
        <ele>150.19999694824</ele>
        <time>2010-12-09T14:07:53.000Z</time>
      </trkpt>
      <trkpt lat="43.55331" lon="6.92651">
        <ele>148.60000610352</ele>
        <time>2010-12-09T14:07:56.000Z</time>
      </trkpt>
      <trkpt lat="43.5534" lon="6.92656">
        <ele>145.39999389648</ele>
        <time>2010-12-09T14:07:59.000Z</time>
      </trkpt>
      <trkpt lat="43.55342" lon="6.92668">
        <ele>142.19999694824</ele>
        <time>2010-12-09T14:08:03.000Z</time>
      </trkpt>
      <trkpt lat="43.55337" lon="6.92675">
        <ele>142.19999694824</ele>
        <time>2010-12-09T14:08:06.000Z</time>
      </trkpt>
      <trkpt lat="43.55344" lon="6.92678">
        <ele>139.80000305176</ele>
        <time>2010-12-09T14:08:10.000Z</time>
      </trkpt>
      <trkpt lat="43.55342" lon="6.92688">
        <ele>138.39999389648</ele>
        <time>2010-12-09T14:08:13.000Z</time>
      </trkpt>
      <trkpt lat="43.55345" lon="6.92695">
        <ele>136</ele>
        <time>2010-12-09T14:08:16.000Z</time>
      </trkpt>
      <trkpt lat="43.55352" lon="6.92693">
        <ele>134.60000610352</ele>
        <time>2010-12-09T14:08:19.000Z</time>
      </trkpt>
      <trkpt lat="43.55351" lon="6.92701">
        <ele>133.39999389648</ele>
        <time>2010-12-09T14:08:22.000Z</time>
      </trkpt>
      <trkpt lat="43.55345" lon="6.92716">
        <ele>132</ele>
        <time>2010-12-09T14:08:26.000Z</time>
      </trkpt>
      <trkpt lat="43.5534" lon="6.92721">
        <ele>132.19999694824</ele>
        <time>2010-12-09T14:08:29.000Z</time>
      </trkpt>
      <trkpt lat="43.55342" lon="6.92728">
        <ele>130.19999694824</ele>
        <time>2010-12-09T14:08:32.000Z</time>
      </trkpt>
      <trkpt lat="43.5535" lon="6.92732">
        <ele>127.59999847412</ele>
        <time>2010-12-09T14:08:35.000Z</time>
      </trkpt>
      <trkpt lat="43.55358" lon="6.92741">
        <ele>124.40000152588</ele>
        <time>2010-12-09T14:08:40.000Z</time>
      </trkpt>
      <trkpt lat="43.55366" lon="6.92749">
        <ele>121</ele>
        <time>2010-12-09T14:08:43.000Z</time>
      </trkpt>
      <trkpt lat="43.55372" lon="6.92763">
        <ele>117.80000305176</ele>
        <time>2010-12-09T14:08:46.000Z</time>
      </trkpt>
      <trkpt lat="43.55382" lon="6.92789">
        <ele>112.59999847412</ele>
        <time>2010-12-09T14:08:51.000Z</time>
      </trkpt>
      <trkpt lat="43.5539" lon="6.92822">
        <ele>107.40000152588</ele>
        <time>2010-12-09T14:08:56.000Z</time>
      </trkpt>
      <trkpt lat="43.55388" lon="6.92873">
        <ele>103.40000152588</ele>
        <time>2010-12-09T14:09:03.000Z</time>
      </trkpt>
      <trkpt lat="43.55395" lon="6.92915">
        <ele>100.19999694824</ele>
        <time>2010-12-09T14:09:08.000Z</time>
      </trkpt>
      <trkpt lat="43.55393" lon="6.92961">
        <ele>101</ele>
        <time>2010-12-09T14:09:13.000Z</time>
      </trkpt>
      <trkpt lat="43.5539" lon="6.92974">
        <ele>101.19999694824</ele>
        <time>2010-12-09T14:09:15.000Z</time>
      </trkpt>
      <trkpt lat="43.55392" lon="6.92974">
        <ele>101.19999694824</ele>
        <time>2010-12-09T14:09:19.000Z</time>
      </trkpt>
      <trkpt lat="43.55392" lon="6.92978">
        <ele>101.19999694824</ele>
        <time>2010-12-09T14:09:24.000Z</time>
      </trkpt>
      <trkpt lat="43.55391" lon="6.92989">
        <ele>101.40000152588</ele>
        <time>2010-12-09T14:09:33.000Z</time>
      </trkpt>
      <trkpt lat="43.55391" lon="6.92999">
        <ele>101.59999847412</ele>
        <time>2010-12-09T14:09:38.000Z</time>
      </trkpt>
      <trkpt lat="43.55391" lon="6.93023">
        <ele>100.59999847412</ele>
        <time>2010-12-09T14:09:43.000Z</time>
      </trkpt>
      <trkpt lat="43.5539" lon="6.93045">
        <ele>99.599998474121</ele>
        <time>2010-12-09T14:09:47.000Z</time>
      </trkpt>
      <trkpt lat="43.55388" lon="6.93082">
        <ele>98</ele>
        <time>2010-12-09T14:09:52.000Z</time>
      </trkpt>
      <trkpt lat="43.55387" lon="6.93095">
        <ele>97.199996948242</ele>
        <time>2010-12-09T14:09:54.000Z</time>
      </trkpt>
      <trkpt lat="43.55388" lon="6.93104">
        <ele>96.599998474121</ele>
        <time>2010-12-09T14:09:56.000Z</time>
      </trkpt>
      <trkpt lat="43.55389" lon="6.93127">
        <ele>95</ele>
        <time>2010-12-09T14:10:00.000Z</time>
      </trkpt>
      <trkpt lat="43.55391" lon="6.93142">
        <ele>93.599998474121</ele>
        <time>2010-12-09T14:10:04.000Z</time>
      </trkpt>
      <trkpt lat="43.55397" lon="6.93142">
        <ele>93</ele>
        <time>2010-12-09T14:10:07.000Z</time>
      </trkpt>
      <trkpt lat="43.55399" lon="6.93143">
        <ele>92.800003051758</ele>
        <time>2010-12-09T14:10:08.000Z</time>
      </trkpt>
      <trkpt lat="43.55411" lon="6.93154">
        <ele>90.599998474121</ele>
        <time>2010-12-09T14:10:13.000Z</time>
      </trkpt>
      <trkpt lat="43.55425" lon="6.93165">
        <ele>86.599998474121</ele>
        <time>2010-12-09T14:10:17.000Z</time>
      </trkpt>
      <trkpt lat="43.55432" lon="6.93171">
        <ele>83.599998474121</ele>
        <time>2010-12-09T14:10:19.000Z</time>
      </trkpt>
      <trkpt lat="43.5543" lon="6.93187">
        <ele>81.400001525879</ele>
        <time>2010-12-09T14:10:23.000Z</time>
      </trkpt>
      <trkpt lat="43.55426" lon="6.93192">
        <ele>81.599998474121</ele>
        <time>2010-12-09T14:10:26.000Z</time>
      </trkpt>
      <trkpt lat="43.55435" lon="6.93199">
        <ele>78</ele>
        <time>2010-12-09T14:10:29.000Z</time>
      </trkpt>
      <trkpt lat="43.55446" lon="6.93205">
        <ele>74.400001525879</ele>
        <time>2010-12-09T14:10:32.000Z</time>
      </trkpt>
      <trkpt lat="43.55451" lon="6.93208">
        <ele>72.599998474121</ele>
        <time>2010-12-09T14:10:34.000Z</time>
      </trkpt>
      <trkpt lat="43.55451" lon="6.9322">
        <ele>71</ele>
        <time>2010-12-09T14:10:38.000Z</time>
      </trkpt>
      <trkpt lat="43.55455" lon="6.93227">
        <ele>69.199996948242</ele>
        <time>2010-12-09T14:10:41.000Z</time>
      </trkpt>
      <trkpt lat="43.55455" lon="6.93238">
        <ele>67.800003051758</ele>
        <time>2010-12-09T14:10:43.000Z</time>
      </trkpt>
      <trkpt lat="43.55456" lon="6.93247">
        <ele>66.400001525879</ele>
        <time>2010-12-09T14:10:45.000Z</time>
      </trkpt>
      <trkpt lat="43.55452" lon="6.93264">
        <ele>63.799999237061</ele>
        <time>2010-12-09T14:10:50.000Z</time>
      </trkpt>
      <trkpt lat="43.55458" lon="6.93271">
        <ele>61.400001525879</ele>
        <time>2010-12-09T14:10:53.000Z</time>
      </trkpt>
      <trkpt lat="43.55459" lon="6.93276">
        <ele>60.400001525879</ele>
        <time>2010-12-09T14:10:56.000Z</time>
      </trkpt>
      <trkpt lat="43.55453" lon="6.93282">
        <ele>60.200000762939</ele>
        <time>2010-12-09T14:11:00.000Z</time>
      </trkpt>
      <trkpt lat="43.55452" lon="6.93281">
        <ele>60.599998474121</ele>
        <time>2010-12-09T14:11:07.000Z</time>
      </trkpt>
      <trkpt lat="43.55456" lon="6.9328">
        <ele>60.200000762939</ele>
        <time>2010-12-09T14:11:14.000Z</time>
      </trkpt>
      <trkpt lat="43.55459" lon="6.93275">
        <ele>60.599998474121</ele>
        <time>2010-12-09T14:11:20.000Z</time>
      </trkpt>
      <trkpt lat="43.5546" lon="6.93272">
        <ele>61</ele>
        <time>2010-12-09T14:11:25.000Z</time>
      </trkpt>
      <trkpt lat="43.5546" lon="6.93274">
        <ele>60.799999237061</ele>
        <time>2010-12-09T14:11:34.000Z</time>
      </trkpt>
      <trkpt lat="43.55459" lon="6.93275">
        <ele>60.599998474121</ele>
        <time>2010-12-09T14:11:39.000Z</time>
      </trkpt>
      <trkpt lat="43.55454" lon="6.93284">
        <ele>59.799999237061</ele>
        <time>2010-12-09T14:11:44.000Z</time>
      </trkpt>
      <trkpt lat="43.5545" lon="6.93287">
        <ele>59.599998474121</ele>
        <time>2010-12-09T14:11:49.000Z</time>
      </trkpt>
      <trkpt lat="43.55454" lon="6.93291">
        <ele>58.400001525879</ele>
        <time>2010-12-09T14:11:53.000Z</time>
      </trkpt>
      <trkpt lat="43.55462" lon="6.93302">
        <ele>55.400001525879</ele>
        <time>2010-12-09T14:11:59.000Z</time>
      </trkpt>
      <trkpt lat="43.5547" lon="6.93302">
        <ele>54.200000762939</ele>
        <time>2010-12-09T14:12:03.000Z</time>
      </trkpt>
      <trkpt lat="43.55479" lon="6.93295">
        <ele>54.400001525879</ele>
        <time>2010-12-09T14:12:06.000Z</time>
      </trkpt>
      <trkpt lat="43.55495" lon="6.93278">
        <ele>54.799999237061</ele>
        <time>2010-12-09T14:12:11.000Z</time>
      </trkpt>
      <trkpt lat="43.55503" lon="6.93278">
        <ele>54.200000762939</ele>
        <time>2010-12-09T14:12:13.000Z</time>
      </trkpt>
      <trkpt lat="43.55508" lon="6.93292">
        <ele>52.599998474121</ele>
        <time>2010-12-09T14:12:17.000Z</time>
      </trkpt>
      <trkpt lat="43.5551" lon="6.93297">
        <ele>52</ele>
        <time>2010-12-09T14:12:21.000Z</time>
      </trkpt>
      <trkpt lat="43.55511" lon="6.933">
        <ele>51.599998474121</ele>
        <time>2010-12-09T14:12:25.000Z</time>
      </trkpt>
      <trkpt lat="43.55509" lon="6.93293">
        <ele>52.400001525879</ele>
        <time>2010-12-09T14:12:29.000Z</time>
      </trkpt>
      <trkpt lat="43.55508" lon="6.93286">
        <ele>53.400001525879</ele>
        <time>2010-12-09T14:12:31.000Z</time>
      </trkpt>
      <trkpt lat="43.55507" lon="6.93264">
        <ele>56.599998474121</ele>
        <time>2010-12-09T14:12:36.000Z</time>
      </trkpt>
      <trkpt lat="43.55501" lon="6.93249">
        <ele>58</ele>
        <time>2010-12-09T14:12:41.000Z</time>
      </trkpt>
      <trkpt lat="43.55497" lon="6.93228">
        <ele>60</ele>
        <time>2010-12-09T14:12:47.000Z</time>
      </trkpt>
      <trkpt lat="43.55497" lon="6.93224">
        <ele>60.400001525879</ele>
        <time>2010-12-09T14:12:51.000Z</time>
      </trkpt>
      <trkpt lat="43.55499" lon="6.93227">
        <ele>59.799999237061</ele>
        <time>2010-12-09T14:12:58.000Z</time>
      </trkpt>
      <trkpt lat="43.55497" lon="6.93245">
        <ele>58.799999237061</ele>
        <time>2010-12-09T14:13:05.000Z</time>
      </trkpt>
      <trkpt lat="43.55504" lon="6.93259">
        <ele>57</ele>
        <time>2010-12-09T14:13:12.000Z</time>
      </trkpt>
      <trkpt lat="43.55505" lon="6.93259">
        <ele>57.200000762939</ele>
        <time>2010-12-09T14:13:19.000Z</time>
      </trkpt>
      <trkpt lat="43.55506" lon="6.9326">
        <ele>57</ele>
        <time>2010-12-09T14:13:29.000Z</time>
      </trkpt>
      <trkpt lat="43.55506" lon="6.93262">
        <ele>56.799999237061</ele>
        <time>2010-12-09T14:13:30.000Z</time>
      </trkpt>
      <trkpt lat="43.55508" lon="6.93265">
        <ele>56.599998474121</ele>
        <time>2010-12-09T14:13:36.000Z</time>
      </trkpt>
      <trkpt lat="43.55509" lon="6.93265">
        <ele>56.599998474121</ele>
        <time>2010-12-09T14:13:37.000Z</time>
      </trkpt>
      <trkpt lat="43.55513" lon="6.93255">
        <ele>58.599998474121</ele>
        <time>2010-12-09T14:13:42.000Z</time>
      </trkpt>
      <trkpt lat="43.5551" lon="6.93243">
        <ele>59.599998474121</ele>
        <time>2010-12-09T14:13:48.000Z</time>
      </trkpt>
      <trkpt lat="43.55509" lon="6.93241">
        <ele>59.599998474121</ele>
        <time>2010-12-09T14:13:49.000Z</time>
      </trkpt>
      <trkpt lat="43.55509" lon="6.9324">
        <ele>59.799999237061</ele>
        <time>2010-12-09T14:13:55.000Z</time>
      </trkpt>
      <trkpt lat="43.55508" lon="6.93242">
        <ele>59.400001525879</ele>
        <time>2010-12-09T14:14:01.000Z</time>
      </trkpt>
      <trkpt lat="43.55509" lon="6.93238">
        <ele>59.799999237061</ele>
        <time>2010-12-09T14:14:08.000Z</time>
      </trkpt>
      <trkpt lat="43.55513" lon="6.93231">
        <ele>61</ele>
        <time>2010-12-09T14:14:14.000Z</time>
      </trkpt>
      <trkpt lat="43.55515" lon="6.93228">
        <ele>61.599998474121</ele>
        <time>2010-12-09T14:14:17.000Z</time>
      </trkpt>
      <trkpt lat="43.5552" lon="6.93224">
        <ele>62.799999237061</ele>
        <time>2010-12-09T14:14:23.000Z</time>
      </trkpt>
      <trkpt lat="43.55524" lon="6.93223">
        <ele>63.599998474121</ele>
        <time>2010-12-09T14:14:31.000Z</time>
      </trkpt>
      <trkpt lat="43.55527" lon="6.93221">
        <ele>64</ele>
        <time>2010-12-09T14:14:37.000Z</time>
      </trkpt>
      <trkpt lat="43.55528" lon="6.93216">
        <ele>64.800003051758</ele>
        <time>2010-12-09T14:14:44.000Z</time>
      </trkpt>
      <trkpt lat="43.5553" lon="6.93217">
        <ele>65.199996948242</ele>
        <time>2010-12-09T14:14:51.000Z</time>
      </trkpt>
      <trkpt lat="43.55531" lon="6.93214">
        <ele>65.599998474121</ele>
        <time>2010-12-09T14:14:57.000Z</time>
      </trkpt>
      <trkpt lat="43.55534" lon="6.93213">
        <ele>66.199996948242</ele>
        <time>2010-12-09T14:15:03.000Z</time>
      </trkpt>
      <trkpt lat="43.55534" lon="6.93216">
        <ele>65.800003051758</ele>
        <time>2010-12-09T14:15:08.000Z</time>
      </trkpt>
      <trkpt lat="43.55535" lon="6.93218">
        <ele>65.800003051758</ele>
        <time>2010-12-09T14:15:09.000Z</time>
      </trkpt>
      <trkpt lat="43.55541" lon="6.93236">
        <ele>64.400001525879</ele>
        <time>2010-12-09T14:15:15.000Z</time>
      </trkpt>
      <trkpt lat="43.55551" lon="6.93259">
        <ele>62</ele>
        <time>2010-12-09T14:15:20.000Z</time>
      </trkpt>
      <trkpt lat="43.55564" lon="6.93278">
        <ele>60</ele>
        <time>2010-12-09T14:15:24.000Z</time>
      </trkpt>
      <trkpt lat="43.55572" lon="6.93295">
        <ele>57.799999237061</ele>
        <time>2010-12-09T14:15:27.000Z</time>
      </trkpt>
      <trkpt lat="43.55585" lon="6.93322">
        <ele>54.400001525879</ele>
        <time>2010-12-09T14:15:32.000Z</time>
      </trkpt>
      <trkpt lat="43.55585" lon="6.93344">
        <ele>51.200000762939</ele>
        <time>2010-12-09T14:15:36.000Z</time>
      </trkpt>
      <trkpt lat="43.55576" lon="6.93367">
        <ele>47.400001525879</ele>
        <time>2010-12-09T14:15:40.000Z</time>
      </trkpt>
      <trkpt lat="43.55568" lon="6.93378">
        <ele>45.200000762939</ele>
        <time>2010-12-09T14:15:42.000Z</time>
      </trkpt>
      <trkpt lat="43.55564" lon="6.93397">
        <ele>42.400001525879</ele>
        <time>2010-12-09T14:15:46.000Z</time>
      </trkpt>
      <trkpt lat="43.55564" lon="6.93401">
        <ele>41.799999237061</ele>
        <time>2010-12-09T14:15:47.000Z</time>
      </trkpt>
      <trkpt lat="43.55563" lon="6.93418">
        <ele>39.599998474121</ele>
        <time>2010-12-09T14:15:51.000Z</time>
      </trkpt>
      <trkpt lat="43.55555" lon="6.93431">
        <ele>36.799999237061</ele>
        <time>2010-12-09T14:15:55.000Z</time>
      </trkpt>
      <trkpt lat="43.55558" lon="6.93449">
        <ele>35.599998474121</ele>
        <time>2010-12-09T14:16:00.000Z</time>
      </trkpt>
      <trkpt lat="43.55568" lon="6.93473">
        <ele>34.400001525879</ele>
        <time>2010-12-09T14:16:05.000Z</time>
      </trkpt>
      <trkpt lat="43.55575" lon="6.93495">
        <ele>33.200000762939</ele>
        <time>2010-12-09T14:16:09.000Z</time>
      </trkpt>
      <trkpt lat="43.55584" lon="6.9351">
        <ele>33</ele>
        <time>2010-12-09T14:16:12.000Z</time>
      </trkpt>
      <trkpt lat="43.556" lon="6.93512">
        <ele>34.799999237061</ele>
        <time>2010-12-09T14:16:16.000Z</time>
      </trkpt>
      <trkpt lat="43.55616" lon="6.93514">
        <ele>36.599998474121</ele>
        <time>2010-12-09T14:16:20.000Z</time>
      </trkpt>
      <trkpt lat="43.5562" lon="6.9353">
        <ele>35.599998474121</ele>
        <time>2010-12-09T14:16:23.000Z</time>
      </trkpt>
      <trkpt lat="43.55611" lon="6.93543">
        <ele>33.400001525879</ele>
        <time>2010-12-09T14:16:25.000Z</time>
      </trkpt>
      <trkpt lat="43.55582" lon="6.9359">
        <ele>25.60000038147</ele>
        <time>2010-12-09T14:16:31.000Z</time>
      </trkpt>
      <trkpt lat="43.55578" lon="6.93601">
        <ele>25</ele>
        <time>2010-12-09T14:16:32.000Z</time>
      </trkpt>
      <trkpt lat="43.55568" lon="6.93649">
        <ele>23.39999961853</ele>
        <time>2010-12-09T14:16:36.000Z</time>
      </trkpt>
      <trkpt lat="43.55546" lon="6.93687">
        <ele>21.39999961853</ele>
        <time>2010-12-09T14:16:40.000Z</time>
      </trkpt>
      <trkpt lat="43.55522" lon="6.93707">
        <ele>19.799999237061</ele>
        <time>2010-12-09T14:16:43.000Z</time>
      </trkpt>
      <trkpt lat="43.55505" lon="6.93739">
        <ele>18.39999961853</ele>
        <time>2010-12-09T14:16:46.000Z</time>
      </trkpt>
      <trkpt lat="43.5549" lon="6.93784">
        <ele>16.39999961853</ele>
        <time>2010-12-09T14:16:50.000Z</time>
      </trkpt>
      <trkpt lat="43.55474" lon="6.93786">
        <ele>15.800000190735</ele>
        <time>2010-12-09T14:16:54.000Z</time>
      </trkpt>
      <trkpt lat="43.5547" lon="6.93756">
        <ele>16.39999961853</ele>
        <time>2010-12-09T14:16:57.000Z</time>
      </trkpt>
      <trkpt lat="43.55471" lon="6.93745">
        <ele>16.60000038147</ele>
        <time>2010-12-09T14:16:58.000Z</time>
      </trkpt>
      <trkpt lat="43.55472" lon="6.93723">
        <ele>17.200000762939</ele>
        <time>2010-12-09T14:17:00.000Z</time>
      </trkpt>
      <trkpt lat="43.55465" lon="6.93693">
        <ele>17.200000762939</ele>
        <time>2010-12-09T14:17:04.000Z</time>
      </trkpt>
      <trkpt lat="43.55465" lon="6.93695">
        <ele>17.200000762939</ele>
        <time>2010-12-09T14:17:07.000Z</time>
      </trkpt>
      <trkpt lat="43.5547" lon="6.93709">
        <ele>17.200000762939</ele>
        <time>2010-12-09T14:17:12.000Z</time>
      </trkpt>
      <trkpt lat="43.55471" lon="6.93714">
        <ele>17.200000762939</ele>
        <time>2010-12-09T14:17:13.000Z</time>
      </trkpt>
      <trkpt lat="43.55468" lon="6.93753">
        <ele>16.200000762939</ele>
        <time>2010-12-09T14:17:19.000Z</time>
      </trkpt>
      <trkpt lat="43.55466" lon="6.9376">
        <ele>16</ele>
        <time>2010-12-09T14:17:20.000Z</time>
      </trkpt>
      <trkpt lat="43.55461" lon="6.93771">
        <ele>15.60000038147</ele>
        <time>2010-12-09T14:17:22.000Z</time>
      </trkpt>
      <trkpt lat="43.55453" lon="6.93792">
        <ele>15</ele>
        <time>2010-12-09T14:17:26.000Z</time>
      </trkpt>
      <trkpt lat="43.55448" lon="6.93824">
        <ele>14.39999961853</ele>
        <time>2010-12-09T14:17:31.000Z</time>
      </trkpt>
      <trkpt lat="43.55436" lon="6.93862">
        <ele>14.39999961853</ele>
        <time>2010-12-09T14:17:35.000Z</time>
      </trkpt>
      <trkpt lat="43.55426" lon="6.9387">
        <ele>14.39999961853</ele>
        <time>2010-12-09T14:17:39.000Z</time>
      </trkpt>
      <trkpt lat="43.55418" lon="6.93863">
        <ele>14.199999809265</ele>
        <time>2010-12-09T14:17:41.000Z</time>
      </trkpt>
      <trkpt lat="43.55388" lon="6.93832">
        <ele>12.60000038147</ele>
        <time>2010-12-09T14:17:49.000Z</time>
      </trkpt>
      <trkpt lat="43.5536" lon="6.93802">
        <ele>11.199999809265</ele>
        <time>2010-12-09T14:17:56.000Z</time>
      </trkpt>
      <trkpt lat="43.55339" lon="6.93782">
        <ele>10.199999809265</ele>
        <time>2010-12-09T14:18:01.000Z</time>
      </trkpt>
      <trkpt lat="43.55311" lon="6.93769">
        <ele>10.800000190735</ele>
        <time>2010-12-09T14:18:07.000Z</time>
      </trkpt>
      <trkpt lat="43.55296" lon="6.93766">
        <ele>11.39999961853</ele>
        <time>2010-12-09T14:18:10.000Z</time>
      </trkpt>
      <trkpt lat="43.5528" lon="6.93764">
        <ele>12.199999809265</ele>
        <time>2010-12-09T14:18:14.000Z</time>
      </trkpt>
      <trkpt lat="43.55278" lon="6.93763">
        <ele>12.199999809265</ele>
        <time>2010-12-09T14:18:17.000Z</time>
      </trkpt>
    </trkseg>
  </trk>
</gpx>